AFR836 LFPG-SOCA
Flight info
| Callsign | AFR836 |
|---|---|
| Flight time | 8h 50m |
| Altitude | 35000 |
| Route | LGL UT176 ROLEN/N0476F370 UZ15 DIDAK DCT AKEMO DCT RIVAK/M082F370 UN460 SIVIR DCT PASAS DCT 44N015W/M082F360 40N022W/M082F380 35N029W 30N034W 24N040W/M082F400 20N043W/N0469F400 15N045W DCT PANON DCT MEBLI DCT REKIM REKIM1E |
| Aircraft | B772/H-SDE2E3FGHIJ5LORVWXY/LB1D1 |
Departure
| Time | 2026-05-04 13:42 |
|---|---|
| Airport | Charles de Gaulle International Airport (LFPG) |
Arrival
| Time | 2026-05-04 22:32 |
|---|---|
| Airport | Cayenne – Félix Eboué Airport (SOCA) |
| Time | Latitude | Longitude | Altitude | Speed | Heading |
|---|---|---|---|---|---|
| 2026-05-04 13:40 | 48.99583 | 2.55393 | 363 ft | 9 kts | 105° |
| 2026-05-04 13:40 | 48.99580 | 2.55471 | 360 ft | 7 kts | 85° |
| 2026-05-04 13:41 | 48.99591 | 2.55688 | 360 ft | 45 kts | 85° |
| 2026-05-04 13:41 | 48.99636 | 2.56523 | 362 ft | 112 kts | 85° |
| 2026-05-04 13:41 | 48.99718 | 2.58011 | 365 ft | 167 kts | 84° |
| 2026-05-04 13:42 | 48.99889 | 2.61512 | 1559 ft | 168 kts | 86° |
| 2026-05-04 13:42 | 48.99976 | 2.63398 | 1814 ft | 190 kts | 86° |
| 2026-05-04 13:42 | 49.00068 | 2.65499 | 2095 ft | 206 kts | 92° |
| 2026-05-04 13:42 | 48.99539 | 2.67616 | 2197 ft | 231 kts | 134° |
| 2026-05-04 13:43 | 48.98091 | 2.68756 | 2616 ft | 247 kts | 170° |
| 2026-05-04 13:43 | 48.96370 | 2.68552 | 3151 ft | 255 kts | 201° |
| 2026-05-04 13:43 | 48.94900 | 2.67067 | 3730 ft | 257 kts | 226° |
| 2026-05-04 13:43 | 48.93737 | 2.64961 | 4219 ft | 262 kts | 231° |
| 2026-05-04 13:44 | 48.92593 | 2.62782 | 4902 ft | 263 kts | 231° |
| 2026-05-04 13:44 | 48.91428 | 2.60571 | 5384 ft | 270 kts | 231° |
| 2026-05-04 13:44 | 48.90256 | 2.58339 | 6068 ft | 270 kts | 231° |
| 2026-05-04 13:44 | 48.89060 | 2.56091 | 6552 ft | 276 kts | 231° |
| 2026-05-04 13:45 | 48.87850 | 2.53832 | 7054 ft | 281 kts | 231° |
| 2026-05-04 13:45 | 48.86600 | 2.51509 | 7519 ft | 287 kts | 231° |
| 2026-05-04 13:45 | 48.85314 | 2.49144 | 8018 ft | 290 kts | 230° |
| 2026-05-04 13:45 | 48.84018 | 2.46778 | 8583 ft | 292 kts | 230° |
| 2026-05-04 13:46 | 48.82751 | 2.44421 | 9164 ft | 292 kts | 230° |
| 2026-05-04 13:46 | 48.81471 | 2.42026 | 9732 ft | 292 kts | 230° |
| 2026-05-04 13:46 | 48.80368 | 2.39456 | 10088 ft | 295 kts | 248° |
| 2026-05-04 13:46 | 48.80000 | 2.36347 | 10179 ft | 306 kts | 270° |
| 2026-05-04 13:47 | 48.80030 | 2.33042 | 10292 ft | 321 kts | 271° |
| 2026-05-04 13:47 | 48.80060 | 2.29564 | 10414 ft | 337 kts | 270° |
| 2026-05-04 13:47 | 48.80085 | 2.25913 | 10630 ft | 352 kts | 270° |
| 2026-05-04 13:47 | 48.80107 | 2.22147 | 11074 ft | 361 kts | 270° |
| 2026-05-04 13:48 | 48.80129 | 2.18290 | 11622 ft | 369 kts | 270° |
| 2026-05-04 13:48 | 48.80136 | 2.14434 | 12395 ft | 372 kts | 270° |
| 2026-05-04 13:48 | 48.80135 | 2.10484 | 13173 ft | 376 kts | 269° |
| 2026-05-04 13:48 | 48.80135 | 2.06484 | 13882 ft | 382 kts | 269° |
| 2026-05-04 13:49 | 48.80137 | 2.02429 | 14551 ft | 385 kts | 269° |
| 2026-05-04 13:49 | 48.80136 | 1.98354 | 15227 ft | 387 kts | 269° |
| 2026-05-04 13:49 | 48.80154 | 1.94253 | 15849 ft | 389 kts | 269° |
| 2026-05-04 13:49 | 48.80152 | 1.90107 | 16425 ft | 394 kts | 269° |
| 2026-05-04 13:50 | 48.80140 | 1.85972 | 17050 ft | 396 kts | 268° |
| 2026-05-04 13:50 | 48.80106 | 1.81794 | 17625 ft | 399 kts | 267° |
| 2026-05-04 13:50 | 48.80040 | 1.77556 | 18220 ft | 403 kts | 268° |
| 2026-05-04 13:50 | 48.80015 | 1.73295 | 18805 ft | 406 kts | 268° |
| 2026-05-04 13:51 | 48.80016 | 1.68966 | 19107 ft | 414 kts | 268° |
| 2026-05-04 13:51 | 48.79994 | 1.64576 | 19571 ft | 417 kts | 268° |
| 2026-05-04 13:51 | 48.80004 | 1.60157 | 20192 ft | 417 kts | 269° |
| 2026-05-04 13:51 | 48.80072 | 1.55841 | 20760 ft | 413 kts | 270° |
| 2026-05-04 13:52 | 48.80094 | 1.47020 | 21547 ft | 418 kts | 268° |
| 2026-05-04 13:52 | 48.80076 | 1.42582 | 21910 ft | 422 kts | 266° |
| 2026-05-04 13:52 | 48.80000 | 1.38121 | 22377 ft | 424 kts | 266° |
| 2026-05-04 13:53 | 48.79927 | 1.33636 | 22921 ft | 425 kts | 266° |
| 2026-05-04 13:53 | 48.79882 | 1.29143 | 23460 ft | 426 kts | 266° |
| 2026-05-04 13:53 | 48.79828 | 1.24616 | 23780 ft | 431 kts | 266° |
| 2026-05-04 13:54 | 48.79756 | 1.15519 | 24548 ft | 435 kts | 266° |
| 2026-05-04 13:54 | 48.79723 | 1.10922 | 24975 ft | 436 kts | 266° |
| 2026-05-04 13:54 | 48.79649 | 1.01691 | 25765 ft | 440 kts | 266° |
| 2026-05-04 13:55 | 48.79606 | 0.97031 | 26142 ft | 442 kts | 266° |
| 2026-05-04 13:55 | 48.79512 | 0.87645 | 26912 ft | 446 kts | 266° |
| 2026-05-04 13:55 | 48.79462 | 0.82981 | 27296 ft | 448 kts | 266° |
| 2026-05-04 13:56 | 48.79409 | 0.78232 | 27702 ft | 451 kts | 266° |
| 2026-05-04 13:56 | 48.79355 | 0.73453 | 28108 ft | 454 kts | 266° |
| 2026-05-04 13:56 | 48.79241 | 0.63824 | 28864 ft | 458 kts | 265° |
| 2026-05-04 13:57 | 48.79150 | 0.59045 | 29179 ft | 456 kts | 262° |
| 2026-05-04 13:57 | 48.78541 | 0.54332 | 29375 ft | 455 kts | 248° |
| 2026-05-04 13:58 | 48.73334 | 0.42612 | 30265 ft | 450 kts | 226° |
| 2026-05-04 13:58 | 48.69203 | 0.35455 | 30780 ft | 453 kts | 227° |
| 2026-05-04 13:58 | 48.67140 | 0.31823 | 31012 ft | 455 kts | 227° |
| 2026-05-04 13:59 | 48.65103 | 0.28221 | 31206 ft | 456 kts | 227° |
| 2026-05-04 13:59 | 48.63033 | 0.24561 | 31485 ft | 456 kts | 227° |
| 2026-05-04 13:59 | 48.58896 | 0.17296 | 32121 ft | 454 kts | 225° |
| 2026-05-04 14:00 | 48.56685 | 0.13892 | 32401 ft | 452 kts | 220° |
| 2026-05-04 14:00 | 48.51888 | 0.07838 | 32975 ft | 451 kts | 218° |
| 2026-05-04 14:00 | 48.49478 | 0.04795 | 33287 ft | 450 kts | 218° |
| 2026-05-04 14:01 | 48.47087 | 0.01757 | 33579 ft | 450 kts | 218° |
| 2026-05-04 14:01 | 48.44687 | -0.01298 | 33876 ft | 450 kts | 218° |
| 2026-05-04 14:01 | 48.39904 | -0.07389 | 34217 ft | 453 kts | 218° |
| 2026-05-04 14:02 | 48.37489 | -0.10459 | 34449 ft | 453 kts | 218° |
| 2026-05-04 14:02 | 48.35077 | -0.13520 | 34694 ft | 453 kts | 218° |
| 2026-05-04 14:02 | 48.32666 | -0.16576 | 34847 ft | 454 kts | 218° |
| 2026-05-04 14:03 | 48.27926 | -0.22878 | 34955 ft | 460 kts | 225° |
| 2026-05-04 14:03 | 48.23903 | -0.30377 | 34941 ft | 457 kts | 233° |
| 2026-05-04 14:04 | 48.19103 | -0.42619 | 34947 ft | 454 kts | 237° |
| 2026-05-04 14:04 | 48.15933 | -0.50814 | 34955 ft | 452 kts | 237° |
| 2026-05-04 14:05 | 48.11183 | -0.62965 | 34965 ft | 451 kts | 237° |
| 2026-05-04 14:06 | 48.07993 | -0.71073 | 34969 ft | 452 kts | 237° |
| 2026-05-04 14:06 | 48.04812 | -0.79134 | 34970 ft | 453 kts | 237° |
| 2026-05-04 14:07 | 48.01598 | -0.87257 | 34991 ft | 455 kts | 237° |
| 2026-05-04 14:07 | 47.98909 | -0.94034 | 34957 ft | 456 kts | 236° |
| 2026-05-04 14:08 | 47.95129 | -1.03532 | 34958 ft | 458 kts | 236° |
| 2026-05-04 14:08 | 47.92392 | -1.10389 | 34941 ft | 458 kts | 236° |
| 2026-05-04 14:09 | 47.87531 | -1.22526 | 34938 ft | 453 kts | 236° |
| 2026-05-04 14:10 | 47.82740 | -1.34608 | 34948 ft | 446 kts | 239° |
| 2026-05-04 14:10 | 47.79624 | -1.42618 | 34958 ft | 454 kts | 235° |
| 2026-05-04 14:11 | 47.76222 | -1.50665 | 34953 ft | 461 kts | 235° |
| 2026-05-04 14:11 | 47.71208 | -1.62838 | 34931 ft | 457 kts | 236° |
| 2026-05-04 14:12 | 47.67932 | -1.70887 | 34959 ft | 456 kts | 236° |
| 2026-05-04 14:13 | 47.62964 | -1.83029 | 34957 ft | 460 kts | 236° |
| 2026-05-04 14:13 | 47.59629 | -1.91140 | 34949 ft | 464 kts | 236° |
| 2026-05-04 14:14 | 47.56247 | -1.99341 | 34950 ft | 466 kts | 236° |
| 2026-05-04 14:14 | 47.51186 | -2.11569 | 34978 ft | 465 kts | 236° |
| 2026-05-04 14:15 | 47.44432 | -2.27800 | 34961 ft | 463 kts | 236° |
| 2026-05-04 14:16 | 47.39361 | -2.39923 | 34966 ft | 461 kts | 236° |
| 2026-05-04 14:17 | 47.34305 | -2.51956 | 34985 ft | 460 kts | 236° |
| 2026-05-04 14:18 | 47.29230 | -2.63981 | 34967 ft | 461 kts | 236° |
| 2026-05-04 14:19 | 47.22440 | -2.79989 | 34975 ft | 461 kts | 236° |
| 2026-05-04 14:19 | 47.19047 | -2.87959 | 34972 ft | 462 kts | 235° |
| 2026-05-04 14:20 | 47.15632 | -2.95991 | 34970 ft | 464 kts | 237° |
| 2026-05-04 14:20 | 47.12911 | -3.04589 | 34982 ft | 469 kts | 248° |
| 2026-05-04 14:21 | 47.10117 | -3.18454 | 34976 ft | 472 kts | 251° |
| 2026-05-04 14:21 | 47.08267 | -3.27668 | 34975 ft | 473 kts | 251° |
| 2026-05-04 14:22 | 47.06376 | -3.36933 | 34979 ft | 474 kts | 251° |
| 2026-05-04 14:22 | 47.04476 | -3.46163 | 34982 ft | 475 kts | 251° |
| 2026-05-04 14:23 | 47.01586 | -3.60117 | 34981 ft | 477 kts | 251° |
| 2026-05-04 14:24 | 46.99660 | -3.69369 | 34989 ft | 477 kts | 251° |
| 2026-05-04 14:24 | 46.97715 | -3.78666 | 34990 ft | 477 kts | 251° |
| 2026-05-04 14:25 | 46.95772 | -3.87914 | 34984 ft | 477 kts | 251° |
| 2026-05-04 14:25 | 46.92829 | -4.01841 | 34983 ft | 476 kts | 251° |
| 2026-05-04 14:26 | 46.90879 | -4.11017 | 35001 ft | 475 kts | 251° |
| 2026-05-04 14:26 | 46.88908 | -4.20250 | 34989 ft | 475 kts | 251° |
| 2026-05-04 14:27 | 46.86927 | -4.29487 | 34987 ft | 474 kts | 250° |
| 2026-05-04 14:27 | 46.84950 | -4.38663 | 34978 ft | 474 kts | 250° |
| 2026-05-04 14:28 | 46.82977 | -4.47783 | 34990 ft | 473 kts | 250° |
| 2026-05-04 14:28 | 46.80987 | -4.56940 | 34992 ft | 473 kts | 250° |
| 2026-05-04 14:29 | 46.76982 | -4.75247 | 34991 ft | 473 kts | 250° |
| 2026-05-04 14:30 | 46.74977 | -4.84353 | 34992 ft | 473 kts | 250° |
| 2026-05-04 14:31 | 46.71941 | -4.98066 | 34984 ft | 474 kts | 250° |
| 2026-05-04 14:32 | 46.67877 | -5.16286 | 34989 ft | 474 kts | 250° |
| 2026-05-04 14:32 | 46.65826 | -5.25418 | 34986 ft | 474 kts | 250° |
| 2026-05-04 14:33 | 46.63768 | -5.34546 | 34993 ft | 474 kts | 250° |
| 2026-05-04 14:33 | 46.61698 | -5.43685 | 34988 ft | 475 kts | 250° |
| 2026-05-04 14:34 | 46.59635 | -5.52759 | 34992 ft | 475 kts | 250° |
| 2026-05-04 14:34 | 46.57548 | -5.61895 | 34985 ft | 474 kts | 250° |
| 2026-05-04 14:35 | 46.55470 | -5.70957 | 34999 ft | 475 kts | 250° |
| 2026-05-04 14:35 | 46.53382 | -5.80022 | 34993 ft | 475 kts | 250° |
| 2026-05-04 14:36 | 46.51274 | -5.89133 | 34989 ft | 475 kts | 250° |
| 2026-05-04 14:36 | 46.49160 | -5.98238 | 34990 ft | 475 kts | 250° |
| 2026-05-04 14:37 | 46.47051 | -6.07278 | 34994 ft | 475 kts | 250° |
| 2026-05-04 14:37 | 46.44922 | -6.16368 | 34991 ft | 476 kts | 250° |
| 2026-05-04 14:38 | 46.42784 | -6.25460 | 34991 ft | 476 kts | 250° |
| 2026-05-04 14:38 | 46.40652 | -6.34489 | 34986 ft | 476 kts | 250° |
| 2026-05-04 14:39 | 46.38497 | -6.43575 | 34990 ft | 476 kts | 250° |
| 2026-05-04 14:39 | 46.36329 | -6.52678 | 34983 ft | 477 kts | 250° |
| 2026-05-04 14:40 | 46.33080 | -6.66253 | 34983 ft | 477 kts | 250° |
| 2026-05-04 14:40 | 46.30895 | -6.75335 | 34984 ft | 477 kts | 250° |
| 2026-05-04 14:41 | 46.28715 | -6.84362 | 34988 ft | 477 kts | 250° |
| 2026-05-04 14:42 | 46.24316 | -7.02464 | 34981 ft | 478 kts | 250° |
| 2026-05-04 14:42 | 46.22096 | -7.11544 | 34983 ft | 478 kts | 250° |
| 2026-05-04 14:43 | 46.19870 | -7.20612 | 34988 ft | 479 kts | 250° |
| 2026-05-04 14:43 | 46.17649 | -7.29621 | 34983 ft | 479 kts | 250° |
| 2026-05-04 14:44 | 46.15397 | -7.38721 | 34983 ft | 480 kts | 250° |
| 2026-05-04 14:44 | 46.13157 | -7.47737 | 34986 ft | 480 kts | 250° |
| 2026-05-04 14:45 | 46.10895 | -7.56809 | 34991 ft | 480 kts | 250° |
| 2026-05-04 14:45 | 46.08643 | -7.65799 | 34989 ft | 480 kts | 250° |
| 2026-05-04 14:46 | 46.06369 | -7.74848 | 34981 ft | 479 kts | 250° |
| 2026-05-04 14:46 | 46.04087 | -7.83893 | 34989 ft | 479 kts | 250° |
| 2026-05-04 14:47 | 46.01817 | -7.92863 | 34989 ft | 478 kts | 251° |
| 2026-05-04 14:47 | 46.00268 | -8.02113 | 34991 ft | 478 kts | 263° |
| 2026-05-04 14:48 | 45.99931 | -8.11665 | 34995 ft | 477 kts | 271° |
| 2026-05-04 14:48 | 46.00006 | -8.21146 | 34991 ft | 478 kts | 271° |
| 2026-05-04 14:49 | 46.00051 | -8.30732 | 34997 ft | 478 kts | 270° |
| 2026-05-04 14:49 | 46.00058 | -8.40331 | 34996 ft | 479 kts | 270° |
| 2026-05-04 14:50 | 46.00051 | -8.49907 | 34993 ft | 479 kts | 270° |
| 2026-05-04 14:50 | 46.00038 | -8.59469 | 34987 ft | 480 kts | 270° |
| 2026-05-04 14:51 | 46.00015 | -8.69085 | 34998 ft | 479 kts | 269° |
| 2026-05-04 14:51 | 45.99242 | -8.78559 | 34992 ft | 479 kts | 258° |
| 2026-05-04 14:52 | 45.97468 | -8.87826 | 34991 ft | 480 kts | 253° |
| 2026-05-04 14:52 | 45.95384 | -8.96952 | 34999 ft | 480 kts | 252° |
| 2026-05-04 14:53 | 45.93335 | -9.06059 | 34999 ft | 481 kts | 253° |
| 2026-05-04 14:53 | 45.91329 | -9.15228 | 34993 ft | 481 kts | 253° |
| 2026-05-04 14:54 | 45.89346 | -9.24370 | 35000 ft | 482 kts | 253° |
| 2026-05-04 14:54 | 45.87344 | -9.33565 | 35001 ft | 482 kts | 253° |
| 2026-05-04 14:55 | 45.85329 | -9.42759 | 35004 ft | 483 kts | 253° |
| 2026-05-04 14:55 | 45.83313 | -9.51908 | 34995 ft | 483 kts | 253° |
| 2026-05-04 14:56 | 45.81280 | -9.61097 | 35000 ft | 483 kts | 253° |
| 2026-05-04 14:56 | 45.79251 | -9.70225 | 35007 ft | 483 kts | 253° |
| 2026-05-04 14:57 | 45.77198 | -9.79422 | 35008 ft | 483 kts | 253° |
| 2026-05-04 14:57 | 45.75152 | -9.88551 | 34999 ft | 483 kts | 253° |
| 2026-05-04 14:58 | 45.73436 | -9.96174 | 35007 ft | 483 kts | 253° |
| 2026-05-04 14:58 | 45.71348 | -10.05299 | 35011 ft | 481 kts | 253° |
| 2026-05-04 14:59 | 45.69273 | -10.14426 | 35017 ft | 481 kts | 253° |
| 2026-05-04 15:00 | 45.66192 | -10.28047 | 34990 ft | 481 kts | 254° |
| 2026-05-04 15:00 | 45.64109 | -10.37156 | 35023 ft | 481 kts | 254° |
| 2026-05-04 15:01 | 45.60974 | -10.50755 | 35019 ft | 482 kts | 253° |
| 2026-05-04 15:01 | 45.58862 | -10.59868 | 35007 ft | 482 kts | 253° |
| 2026-05-04 15:02 | 45.56752 | -10.68932 | 35018 ft | 483 kts | 254° |
| 2026-05-04 15:02 | 45.54623 | -10.78048 | 35023 ft | 483 kts | 253° |
| 2026-05-04 15:03 | 45.52487 | -10.87150 | 35031 ft | 484 kts | 253° |
| 2026-05-04 15:03 | 45.50349 | -10.96225 | 35016 ft | 485 kts | 253° |
| 2026-05-04 15:04 | 45.48192 | -11.05341 | 35026 ft | 485 kts | 254° |
| 2026-05-04 15:04 | 45.46034 | -11.14427 | 35040 ft | 485 kts | 254° |
| 2026-05-04 15:05 | 45.43859 | -11.23547 | 35040 ft | 486 kts | 253° |
| 2026-05-04 15:05 | 45.41682 | -11.32636 | 35036 ft | 486 kts | 254° |
| 2026-05-04 15:06 | 45.39499 | -11.41712 | 35052 ft | 486 kts | 254° |
| 2026-05-04 15:07 | 45.36201 | -11.55357 | 35059 ft | 485 kts | 253° |
| 2026-05-04 15:07 | 45.33994 | -11.64441 | 35060 ft | 485 kts | 254° |
| 2026-05-04 15:08 | 45.31800 | -11.73437 | 35049 ft | 484 kts | 254° |
| 2026-05-04 15:08 | 45.29588 | -11.82471 | 35060 ft | 483 kts | 253° |
| 2026-05-04 15:09 | 45.27368 | -11.91500 | 35064 ft | 483 kts | 253° |
| 2026-05-04 15:09 | 45.25154 | -12.00467 | 35063 ft | 483 kts | 253° |
| 2026-05-04 15:10 | 45.21810 | -12.13948 | 35074 ft | 483 kts | 253° |
| 2026-05-04 15:11 | 45.18444 | -12.27441 | 35080 ft | 483 kts | 253° |
| 2026-05-04 15:11 | 45.16188 | -12.36436 | 35078 ft | 483 kts | 253° |
| 2026-05-04 15:12 | 45.13937 | -12.45378 | 35074 ft | 483 kts | 253° |
| 2026-05-04 15:12 | 45.11683 | -12.54300 | 35090 ft | 483 kts | 253° |
| 2026-05-04 15:13 | 45.09410 | -12.63260 | 35091 ft | 483 kts | 253° |
| 2026-05-04 15:13 | 45.07122 | -12.72245 | 35096 ft | 483 kts | 253° |
| 2026-05-04 15:14 | 45.04847 | -12.81144 | 35105 ft | 483 kts | 253° |
| 2026-05-04 15:14 | 45.02555 | -12.90083 | 35106 ft | 482 kts | 253° |
| 2026-05-04 15:15 | 45.00138 | -12.98894 | 35103 ft | 484 kts | 248° |
| 2026-05-04 15:15 | 44.96682 | -13.07104 | 35115 ft | 487 kts | 238° |
| 2026-05-04 15:16 | 44.90893 | -13.18822 | 35117 ft | 487 kts | 238° |
| 2026-05-04 15:17 | 44.85132 | -13.30589 | 35126 ft | 487 kts | 239° |
| 2026-05-04 15:17 | 44.79354 | -13.42412 | 35114 ft | 488 kts | 239° |
| 2026-05-04 15:18 | 44.75517 | -13.50235 | 35140 ft | 488 kts | 239° |
| 2026-05-04 15:19 | 44.69702 | -13.62047 | 35143 ft | 488 kts | 239° |
| 2026-05-04 15:19 | 44.63908 | -13.73765 | 35123 ft | 488 kts | 239° |
| 2026-05-04 15:20 | 44.60011 | -13.81621 | 35144 ft | 488 kts | 239° |
| 2026-05-04 15:20 | 44.56148 | -13.89390 | 35151 ft | 488 kts | 239° |
| 2026-05-04 15:21 | 44.52243 | -13.97219 | 35157 ft | 488 kts | 239° |
| 2026-05-04 15:22 | 44.46409 | -14.08876 | 35157 ft | 487 kts | 239° |
| 2026-05-04 15:22 | 44.40580 | -14.20477 | 35161 ft | 487 kts | 239° |
| 2026-05-04 15:23 | 44.36696 | -14.28184 | 35163 ft | 486 kts | 239° |
| 2026-05-04 15:23 | 44.32785 | -14.35920 | 35156 ft | 486 kts | 239° |
| 2026-05-04 15:24 | 44.24979 | -14.51305 | 35179 ft | 486 kts | 239° |
| 2026-05-04 15:25 | 44.21053 | -14.59011 | 35179 ft | 486 kts | 239° |
| 2026-05-04 15:26 | 44.15186 | -14.70487 | 35176 ft | 485 kts | 239° |
| 2026-05-04 15:26 | 44.09317 | -14.81926 | 35180 ft | 485 kts | 239° |
| 2026-05-04 15:27 | 44.03415 | -14.93388 | 35183 ft | 484 kts | 239° |
| 2026-05-04 15:28 | 43.97558 | -15.04755 | 35181 ft | 483 kts | 240° |
| 2026-05-04 15:29 | 43.91746 | -15.16196 | 35196 ft | 482 kts | 240° |
| 2026-05-04 15:30 | 43.78213 | -15.42648 | 35206 ft | 481 kts | 240° |
| 2026-05-04 15:31 | 43.72373 | -15.53978 | 35210 ft | 481 kts | 240° |
| 2026-05-04 15:32 | 43.62652 | -15.72742 | 35198 ft | 479 kts | 240° |
| 2026-05-04 15:34 | 43.52966 | -15.91322 | 35208 ft | 477 kts | 240° |
| 2026-05-04 15:34 | 43.47124 | -16.02471 | 35197 ft | 476 kts | 240° |
| 2026-05-04 15:35 | 43.41487 | -16.13456 | 35219 ft | 469 kts | 238° |
| 2026-05-04 15:36 | 43.35617 | -16.24282 | 35223 ft | 470 kts | 239° |
| 2026-05-04 15:36 | 43.31772 | -16.31533 | 35221 ft | 472 kts | 239° |
| 2026-05-04 15:37 | 43.27902 | -16.38847 | 35213 ft | 472 kts | 239° |
| 2026-05-04 15:37 | 43.24024 | -16.46149 | 35219 ft | 472 kts | 239° |
| 2026-05-04 15:38 | 43.20164 | -16.53387 | 35216 ft | 472 kts | 239° |
| 2026-05-04 15:38 | 43.16278 | -16.60650 | 35220 ft | 470 kts | 239° |
| 2026-05-04 15:39 | 43.12431 | -16.67825 | 35223 ft | 469 kts | 239° |
| 2026-05-04 15:40 | 43.06657 | -16.78561 | 35207 ft | 464 kts | 239° |
| 2026-05-04 15:40 | 43.02853 | -16.85614 | 35228 ft | 461 kts | 239° |
| 2026-05-04 15:41 | 42.99053 | -16.92645 | 35233 ft | 459 kts | 239° |
| 2026-05-04 15:41 | 42.95257 | -16.99650 | 35232 ft | 458 kts | 239° |
| 2026-05-04 15:42 | 42.91467 | -17.06630 | 35214 ft | 456 kts | 239° |
| 2026-05-04 15:42 | 42.87707 | -17.13537 | 35233 ft | 455 kts | 239° |
| 2026-05-04 15:43 | 42.83931 | -17.20457 | 35240 ft | 455 kts | 239° |
| 2026-05-04 15:43 | 42.80143 | -17.27384 | 35239 ft | 455 kts | 239° |
| 2026-05-04 15:44 | 42.76366 | -17.34275 | 35242 ft | 456 kts | 239° |
| 2026-05-04 15:44 | 42.72558 | -17.41206 | 35224 ft | 457 kts | 238° |
| 2026-05-04 15:45 | 42.68769 | -17.48084 | 35244 ft | 457 kts | 238° |
| 2026-05-04 15:45 | 42.64947 | -17.55008 | 35243 ft | 457 kts | 238° |
| 2026-05-04 15:46 | 42.61113 | -17.61934 | 35252 ft | 457 kts | 238° |
| 2026-05-04 15:46 | 42.57313 | -17.68785 | 35252 ft | 457 kts | 238° |
| 2026-05-04 15:47 | 42.53488 | -17.75666 | 35225 ft | 456 kts | 238° |
| 2026-05-04 15:47 | 42.50302 | -17.81384 | 35253 ft | 455 kts | 238° |
| 2026-05-04 15:48 | 42.45860 | -17.89341 | 35259 ft | 454 kts | 238° |
| 2026-05-04 15:48 | 42.40161 | -17.99517 | 35259 ft | 452 kts | 238° |
| 2026-05-04 15:49 | 42.36986 | -18.05171 | 35253 ft | 451 kts | 238° |
| 2026-05-04 15:49 | 42.33176 | -18.11942 | 35248 ft | 450 kts | 238° |
| 2026-05-04 15:50 | 42.29407 | -18.18625 | 35262 ft | 449 kts | 238° |
| 2026-05-04 15:50 | 42.25618 | -18.25330 | 35263 ft | 449 kts | 238° |
| 2026-05-04 15:51 | 42.21820 | -18.32034 | 35264 ft | 448 kts | 238° |
| 2026-05-04 15:51 | 42.18044 | -18.38686 | 35265 ft | 449 kts | 238° |
| 2026-05-04 15:52 | 42.14241 | -18.45371 | 35246 ft | 449 kts | 238° |
| 2026-05-04 15:52 | 42.10453 | -18.52014 | 35248 ft | 449 kts | 237° |
| 2026-05-04 15:53 | 42.06640 | -18.58686 | 35265 ft | 449 kts | 237° |
| 2026-05-04 15:53 | 42.02815 | -18.65364 | 35266 ft | 450 kts | 237° |
| 2026-05-04 15:54 | 41.99003 | -18.72005 | 35268 ft | 450 kts | 237° |
| 2026-05-04 15:54 | 41.95158 | -18.78688 | 35266 ft | 450 kts | 237° |
| 2026-05-04 15:55 | 41.91338 | -18.85313 | 35269 ft | 451 kts | 237° |
| 2026-05-04 15:55 | 41.87488 | -18.91976 | 35271 ft | 451 kts | 237° |
| 2026-05-04 15:56 | 41.83660 | -18.98585 | 35274 ft | 450 kts | 237° |
| 2026-05-04 15:56 | 41.79810 | -19.05219 | 35274 ft | 450 kts | 237° |
| 2026-05-04 15:57 | 41.75955 | -19.11847 | 35275 ft | 450 kts | 237° |
| 2026-05-04 15:57 | 41.72121 | -19.18424 | 35268 ft | 449 kts | 236° |
| 2026-05-04 15:58 | 41.68266 | -19.25022 | 35271 ft | 449 kts | 236° |
| 2026-05-04 15:58 | 41.64430 | -19.31574 | 35277 ft | 449 kts | 236° |
| 2026-05-04 15:59 | 41.60573 | -19.38148 | 35276 ft | 449 kts | 236° |
| 2026-05-04 15:59 | 41.56716 | -19.44707 | 35277 ft | 449 kts | 236° |
| 2026-05-04 16:00 | 41.52873 | -19.51230 | 35285 ft | 449 kts | 236° |
| 2026-05-04 16:00 | 41.49005 | -19.57779 | 35278 ft | 449 kts | 236° |
| 2026-05-04 16:01 | 41.45152 | -19.64289 | 35280 ft | 449 kts | 236° |
| 2026-05-04 16:01 | 41.41269 | -19.70836 | 35277 ft | 449 kts | 235° |
| 2026-05-04 16:02 | 41.37386 | -19.77369 | 35279 ft | 449 kts | 235° |
| 2026-05-04 16:03 | 41.31578 | -19.87116 | 35275 ft | 449 kts | 235° |
| 2026-05-04 16:03 | 41.27684 | -19.93632 | 35278 ft | 450 kts | 235° |
| 2026-05-04 16:04 | 41.23801 | -20.00117 | 35267 ft | 450 kts | 234° |
| 2026-05-04 16:04 | 41.17948 | -20.09865 | 35279 ft | 450 kts | 234° |
| 2026-05-04 16:05 | 41.14031 | -20.16372 | 35274 ft | 450 kts | 234° |
| 2026-05-04 16:06 | 41.08157 | -20.26103 | 35280 ft | 451 kts | 234° |
| 2026-05-04 16:07 | 41.00317 | -20.39043 | 35283 ft | 451 kts | 234° |
| 2026-05-04 16:08 | 40.92446 | -20.51980 | 35275 ft | 451 kts | 233° |
| 2026-05-04 16:09 | 40.82577 | -20.68124 | 35283 ft | 452 kts | 233° |
| 2026-05-04 16:10 | 40.74670 | -20.80997 | 35279 ft | 452 kts | 233° |
| 2026-05-04 16:11 | 40.66723 | -20.93881 | 35282 ft | 452 kts | 233° |
| 2026-05-04 16:12 | 40.54805 | -21.13102 | 35286 ft | 453 kts | 233° |
| 2026-05-04 16:13 | 40.46828 | -21.25903 | 35287 ft | 453 kts | 232° |
| 2026-05-04 16:14 | 40.38798 | -21.38733 | 35286 ft | 454 kts | 232° |
| 2026-05-04 16:16 | 40.28762 | -21.54695 | 35289 ft | 454 kts | 232° |
| 2026-05-04 16:17 | 40.18694 | -21.70626 | 35289 ft | 455 kts | 232° |
| 2026-05-04 16:18 | 40.10609 | -21.83362 | 35291 ft | 456 kts | 231° |
| 2026-05-04 16:19 | 40.00452 | -21.99290 | 35301 ft | 456 kts | 231° |
| 2026-05-04 16:20 | 39.90285 | -22.15159 | 35302 ft | 456 kts | 231° |
| 2026-05-04 16:22 | 39.80132 | -22.30939 | 35299 ft | 456 kts | 231° |
| 2026-05-04 16:23 | 39.67911 | -22.49827 | 35293 ft | 455 kts | 231° |
| 2026-05-04 16:25 | 39.55646 | -22.68670 | 35295 ft | 455 kts | 231° |
| 2026-05-04 16:26 | 39.41327 | -22.90525 | 35291 ft | 454 kts | 231° |
| 2026-05-04 16:28 | 39.31090 | -23.06057 | 35291 ft | 454 kts | 231° |
| 2026-05-04 16:29 | 39.16759 | -23.27672 | 35288 ft | 453 kts | 231° |
| 2026-05-04 16:31 | 39.06503 | -23.43051 | 35289 ft | 452 kts | 231° |
| 2026-05-04 16:32 | 38.94211 | -23.61384 | 35288 ft | 451 kts | 231° |
| 2026-05-04 16:33 | 38.86018 | -23.73545 | 35291 ft | 451 kts | 231° |
| 2026-05-04 16:34 | 38.79867 | -23.82642 | 35285 ft | 449 kts | 231° |
| 2026-05-04 16:35 | 38.67593 | -24.00723 | 35287 ft | 447 kts | 231° |
| 2026-05-04 16:36 | 38.61473 | -24.09699 | 35284 ft | 446 kts | 231° |
| 2026-05-04 16:37 | 38.55346 | -24.18659 | 35285 ft | 446 kts | 231° |
| 2026-05-04 16:38 | 38.47189 | -24.30550 | 35284 ft | 445 kts | 231° |
| 2026-05-04 16:39 | 38.37692 | -24.44339 | 35281 ft | 444 kts | 231° |
| 2026-05-04 16:40 | 38.29532 | -24.56139 | 35283 ft | 443 kts | 231° |
| 2026-05-04 16:41 | 38.19326 | -24.70838 | 35265 ft | 443 kts | 231° |
| 2026-05-04 16:43 | 38.09091 | -24.85510 | 35280 ft | 444 kts | 231° |
| 2026-05-04 16:43 | 38.02951 | -24.94279 | 35281 ft | 445 kts | 231° |
| 2026-05-04 16:45 | 37.90586 | -25.11866 | 35280 ft | 446 kts | 231° |
| 2026-05-04 16:46 | 37.80244 | -25.26504 | 35277 ft | 447 kts | 231° |
| 2026-05-04 16:47 | 37.71945 | -25.38200 | 35283 ft | 447 kts | 231° |
| 2026-05-04 16:48 | 37.63623 | -25.49887 | 35286 ft | 446 kts | 231° |
| 2026-05-04 16:49 | 37.55328 | -25.61494 | 35289 ft | 445 kts | 231° |
| 2026-05-04 16:50 | 37.47030 | -25.73064 | 35275 ft | 445 kts | 231° |
| 2026-05-04 16:51 | 37.40811 | -25.81708 | 35267 ft | 445 kts | 231° |
| 2026-05-04 16:52 | 37.32486 | -25.93243 | 35266 ft | 445 kts | 231° |
| 2026-05-04 16:53 | 37.26230 | -26.01884 | 35252 ft | 445 kts | 231° |
| 2026-05-04 16:54 | 37.17882 | -26.13379 | 35268 ft | 446 kts | 230° |
| 2026-05-04 16:55 | 37.05312 | -26.30613 | 35255 ft | 448 kts | 230° |
| 2026-05-04 16:56 | 36.94780 | -26.44980 | 35261 ft | 449 kts | 230° |
| 2026-05-04 16:57 | 36.88421 | -26.53626 | 35250 ft | 450 kts | 230° |
| 2026-05-04 16:58 | 36.79924 | -26.65142 | 35252 ft | 452 kts | 230° |
| 2026-05-04 17:00 | 36.67113 | -26.82428 | 35246 ft | 454 kts | 230° |
| 2026-05-04 17:01 | 36.56374 | -26.96847 | 35249 ft | 454 kts | 230° |
| 2026-05-04 17:02 | 36.47740 | -27.08394 | 35247 ft | 455 kts | 230° |
| 2026-05-04 17:03 | 36.41278 | -27.17011 | 35241 ft | 456 kts | 229° |
| 2026-05-04 17:03 | 36.34774 | -27.25660 | 35239 ft | 457 kts | 229° |
| 2026-05-04 17:04 | 36.30394 | -27.31476 | 35460 ft | 465 kts | 229° |
| 2026-05-04 17:04 | 36.25986 | -27.37314 | 35962 ft | 464 kts | 229° |
| 2026-05-04 17:05 | 36.21570 | -27.43151 | 36542 ft | 463 kts | 229° |
| 2026-05-04 17:05 | 36.17184 | -27.48939 | 37027 ft | 463 kts | 229° |
| 2026-05-04 17:06 | 36.12780 | -27.54742 | 37525 ft | 462 kts | 229° |
| 2026-05-04 17:06 | 36.10575 | -27.57643 | 37772 ft | 461 kts | 229° |
| 2026-05-04 17:07 | 36.06204 | -27.63388 | 38230 ft | 461 kts | 229° |
| 2026-05-04 17:07 | 36.04718 | -27.65338 | 38393 ft | 460 kts | 229° |
| 2026-05-04 17:07 | 36.01811 | -27.69151 | 38669 ft | 460 kts | 229° |
| 2026-05-04 17:07 | 35.99610 | -27.72034 | 38881 ft | 460 kts | 229° |
| 2026-05-04 17:08 | 35.97410 | -27.74914 | 39040 ft | 460 kts | 229° |
| 2026-05-04 17:08 | 35.93021 | -27.80653 | 39164 ft | 463 kts | 229° |
| 2026-05-04 17:09 | 35.88579 | -27.86451 | 39215 ft | 465 kts | 229° |
| 2026-05-04 17:09 | 35.84125 | -27.92253 | 39224 ft | 465 kts | 229° |
| 2026-05-04 17:10 | 35.73016 | -28.06680 | 39219 ft | 464 kts | 229° |
| 2026-05-04 17:11 | 35.68597 | -28.12401 | 39209 ft | 463 kts | 229° |
| 2026-05-04 17:12 | 35.61929 | -28.21017 | 39202 ft | 463 kts | 229° |
| 2026-05-04 17:13 | 35.50839 | -28.35298 | 39212 ft | 463 kts | 229° |
| 2026-05-04 17:14 | 35.41936 | -28.46718 | 39205 ft | 464 kts | 229° |
| 2026-05-04 17:15 | 35.35246 | -28.55274 | 39199 ft | 464 kts | 229° |
| 2026-05-04 17:16 | 35.26296 | -28.66686 | 39191 ft | 465 kts | 229° |
| 2026-05-04 17:17 | 35.17334 | -28.78075 | 39191 ft | 466 kts | 229° |
| 2026-05-04 17:18 | 35.08313 | -28.89498 | 39189 ft | 466 kts | 228° |
| 2026-05-04 17:19 | 34.99270 | -29.00840 | 39202 ft | 468 kts | 225° |
| 2026-05-04 17:20 | 34.89504 | -29.11310 | 39193 ft | 470 kts | 223° |
| 2026-05-04 17:20 | 34.82118 | -29.19220 | 39171 ft | 470 kts | 224° |
| 2026-05-04 17:21 | 34.72321 | -29.29768 | 39190 ft | 472 kts | 224° |
| 2026-05-04 17:22 | 34.67404 | -29.35011 | 39184 ft | 472 kts | 224° |
| 2026-05-04 17:23 | 34.57641 | -29.45611 | 39180 ft | 471 kts | 223° |
| 2026-05-04 17:24 | 34.50245 | -29.53430 | 39180 ft | 471 kts | 223° |
| 2026-05-04 17:25 | 34.40299 | -29.63865 | 39175 ft | 475 kts | 224° |
| 2026-05-04 17:26 | 34.30314 | -29.74415 | 39159 ft | 477 kts | 224° |
| 2026-05-04 17:27 | 34.17836 | -29.87644 | 39156 ft | 478 kts | 223° |
| 2026-05-04 17:28 | 34.07766 | -29.98129 | 39154 ft | 479 kts | 224° |
| 2026-05-04 17:29 | 33.92800 | -30.13883 | 39149 ft | 478 kts | 223° |
| 2026-05-04 17:31 | 33.80981 | -30.26067 | 39151 ft | 482 kts | 224° |
| 2026-05-04 17:32 | 33.68290 | -30.39244 | 39131 ft | 483 kts | 223° |
| 2026-05-04 17:33 | 33.58090 | -30.49787 | 39133 ft | 484 kts | 223° |
| 2026-05-04 17:34 | 33.47873 | -30.60305 | 39133 ft | 484 kts | 223° |
| 2026-05-04 17:35 | 33.35080 | -30.73431 | 39119 ft | 485 kts | 224° |
| 2026-05-04 17:36 | 33.29979 | -30.78651 | 39118 ft | 486 kts | 224° |
| 2026-05-04 17:36 | 33.24821 | -30.83920 | 39126 ft | 487 kts | 224° |
| 2026-05-04 17:37 | 33.19684 | -30.89159 | 39118 ft | 488 kts | 224° |
| 2026-05-04 17:37 | 33.14507 | -30.94430 | 39112 ft | 488 kts | 223° |
| 2026-05-04 17:38 | 33.09356 | -30.99666 | 39107 ft | 489 kts | 224° |
| 2026-05-04 17:38 | 33.04153 | -31.04947 | 39107 ft | 490 kts | 224° |
| 2026-05-04 17:39 | 32.96368 | -31.12833 | 39115 ft | 491 kts | 224° |
| 2026-05-04 17:39 | 32.91180 | -31.18078 | 39112 ft | 492 kts | 224° |
| 2026-05-04 17:40 | 32.85955 | -31.23351 | 39107 ft | 492 kts | 224° |
| 2026-05-04 17:40 | 32.80713 | -31.28633 | 39096 ft | 492 kts | 224° |
| 2026-05-04 17:41 | 32.75503 | -31.33874 | 39092 ft | 492 kts | 223° |
| 2026-05-04 17:41 | 32.70270 | -31.39131 | 39095 ft | 492 kts | 223° |
| 2026-05-04 17:42 | 32.65060 | -31.44355 | 39095 ft | 492 kts | 223° |
| 2026-05-04 17:42 | 32.59833 | -31.49589 | 39090 ft | 491 kts | 223° |
| 2026-05-04 17:43 | 32.54617 | -31.54804 | 39074 ft | 492 kts | 224° |
| 2026-05-04 17:43 | 32.49364 | -31.60048 | 39099 ft | 493 kts | 224° |
| 2026-05-04 17:44 | 32.44126 | -31.65268 | 39099 ft | 495 kts | 224° |
| 2026-05-04 17:44 | 32.38823 | -31.70545 | 39081 ft | 496 kts | 224° |
| 2026-05-04 17:45 | 32.33554 | -31.75779 | 39077 ft | 497 kts | 224° |
| 2026-05-04 17:45 | 32.28240 | -31.81049 | 39057 ft | 498 kts | 224° |
| 2026-05-04 17:46 | 32.22937 | -31.86301 | 39084 ft | 499 kts | 224° |
| 2026-05-04 17:46 | 32.17591 | -31.91587 | 39079 ft | 501 kts | 224° |
| 2026-05-04 17:47 | 32.12233 | -31.96876 | 39078 ft | 502 kts | 224° |
| 2026-05-04 17:47 | 32.06894 | -32.02138 | 39079 ft | 502 kts | 224° |
| 2026-05-04 17:48 | 32.01515 | -32.07430 | 39057 ft | 502 kts | 224° |
| 2026-05-04 17:48 | 31.96243 | -32.12754 | 39072 ft | 500 kts | 225° |
| 2026-05-04 17:49 | 31.90900 | -32.18046 | 39077 ft | 502 kts | 223° |
| 2026-05-04 17:49 | 31.85479 | -32.23216 | 39076 ft | 505 kts | 223° |
| 2026-05-04 17:50 | 31.80030 | -32.28479 | 39075 ft | 507 kts | 224° |
| 2026-05-04 17:50 | 31.74579 | -32.33797 | 39066 ft | 509 kts | 224° |
| 2026-05-04 17:51 | 31.69196 | -32.39119 | 39071 ft | 504 kts | 227° |
| 2026-05-04 17:51 | 31.63841 | -32.44513 | 39068 ft | 508 kts | 224° |
| 2026-05-04 17:52 | 31.58351 | -32.49698 | 39069 ft | 511 kts | 223° |
| 2026-05-04 17:52 | 31.52811 | -32.54978 | 39069 ft | 512 kts | 224° |
| 2026-05-04 17:53 | 31.47300 | -32.60300 | 39067 ft | 513 kts | 224° |
| 2026-05-04 17:53 | 31.41843 | -32.65632 | 39063 ft | 513 kts | 226° |
| 2026-05-04 17:54 | 31.39270 | -32.68432 | 39054 ft | 500 kts | 228° |
| 2026-05-04 17:54 | 31.36628 | -32.71147 | 39064 ft | 507 kts | 224° |
| 2026-05-04 17:54 | 31.30934 | -32.76125 | 39070 ft | 515 kts | 222° |
| 2026-05-04 17:55 | 31.25326 | -32.81352 | 39069 ft | 518 kts | 225° |
| 2026-05-04 17:55 | 31.19781 | -32.86769 | 39064 ft | 521 kts | 225° |
| 2026-05-04 17:56 | 31.14216 | -32.92166 | 39084 ft | 512 kts | 227° |
| 2026-05-04 17:56 | 31.08822 | -32.97591 | 39079 ft | 506 kts | 228° |
| 2026-05-04 17:57 | 31.03366 | -33.02847 | 39073 ft | 515 kts | 224° |
| 2026-05-04 17:57 | 30.97683 | -33.08074 | 39067 ft | 520 kts | 224° |
| 2026-05-04 17:58 | 30.92064 | -33.13346 | 39068 ft | 523 kts | 225° |
| 2026-05-04 17:58 | 30.86420 | -33.18718 | 39047 ft | 524 kts | 226° |
| 2026-05-04 17:59 | 30.80770 | -33.24103 | 39049 ft | 524 kts | 226° |
| 2026-05-04 18:00 | 30.72339 | -33.32108 | 39047 ft | 522 kts | 225° |
| 2026-05-04 18:00 | 30.66709 | -33.37438 | 39049 ft | 520 kts | 225° |
| 2026-05-04 18:01 | 30.61138 | -33.42705 | 39026 ft | 518 kts | 226° |
| 2026-05-04 18:01 | 30.55588 | -33.48024 | 39021 ft | 513 kts | 227° |
| 2026-05-04 18:02 | 30.47242 | -33.55850 | 39048 ft | 517 kts | 226° |
| 2026-05-04 18:02 | 30.41610 | -33.61106 | 39055 ft | 519 kts | 226° |
| 2026-05-04 18:03 | 30.36014 | -33.66357 | 39050 ft | 521 kts | 226° |
| 2026-05-04 18:03 | 30.30372 | -33.71653 | 39030 ft | 522 kts | 227° |
| 2026-05-04 18:04 | 30.24711 | -33.76954 | 39044 ft | 523 kts | 227° |
| 2026-05-04 18:05 | 30.16235 | -33.84874 | 39042 ft | 523 kts | 226° |
| 2026-05-04 18:05 | 30.10568 | -33.90160 | 39044 ft | 523 kts | 226° |
| 2026-05-04 18:06 | 30.02107 | -33.98039 | 39042 ft | 522 kts | 226° |
| 2026-05-04 18:06 | 29.96642 | -34.03514 | 39043 ft | 516 kts | 231° |
| 2026-05-04 18:07 | 29.91443 | -34.09157 | 39045 ft | 515 kts | 232° |
| 2026-05-04 18:07 | 29.86252 | -34.14800 | 39039 ft | 515 kts | 231° |
| 2026-05-04 18:08 | 29.81024 | -34.20444 | 39038 ft | 514 kts | 231° |
| 2026-05-04 18:08 | 29.75789 | -34.26065 | 39046 ft | 512 kts | 231° |
| 2026-05-04 18:09 | 29.65383 | -34.37211 | 39042 ft | 510 kts | 231° |
| 2026-05-04 18:10 | 29.60209 | -34.42744 | 39043 ft | 509 kts | 231° |
| 2026-05-04 18:10 | 29.55016 | -34.48289 | 39015 ft | 509 kts | 232° |
| 2026-05-04 18:11 | 29.49829 | -34.53817 | 39034 ft | 507 kts | 232° |
| 2026-05-04 18:11 | 29.44686 | -34.59292 | 39042 ft | 505 kts | 232° |
| 2026-05-04 18:12 | 29.39529 | -34.64775 | 39040 ft | 504 kts | 232° |
| 2026-05-04 18:12 | 29.34415 | -34.70204 | 39045 ft | 503 kts | 232° |
| 2026-05-04 18:13 | 29.29279 | -34.75648 | 39032 ft | 501 kts | 232° |
| 2026-05-04 18:14 | 29.21621 | -34.83751 | 39038 ft | 500 kts | 232° |
| 2026-05-04 18:14 | 29.16500 | -34.89160 | 39041 ft | 500 kts | 232° |
| 2026-05-04 18:15 | 29.06300 | -34.99911 | 39027 ft | 498 kts | 232° |
| 2026-05-04 18:16 | 29.01195 | -35.05281 | 39039 ft | 497 kts | 232° |
| 2026-05-04 18:16 | 28.96121 | -35.10611 | 39044 ft | 497 kts | 232° |
| 2026-05-04 18:17 | 28.88476 | -35.18627 | 39043 ft | 497 kts | 232° |
| 2026-05-04 18:18 | 28.80863 | -35.26591 | 39027 ft | 496 kts | 232° |
| 2026-05-04 18:18 | 28.76625 | -35.31017 | 39037 ft | 495 kts | 231° |
| 2026-05-04 18:19 | 28.69022 | -35.38944 | 39043 ft | 494 kts | 231° |
| 2026-05-04 18:19 | 28.63119 | -35.45090 | 39044 ft | 494 kts | 231° |
| 2026-05-04 18:20 | 28.58887 | -35.49490 | 39047 ft | 493 kts | 231° |
| 2026-05-04 18:20 | 28.53807 | -35.54764 | 39033 ft | 493 kts | 231° |
| 2026-05-04 18:21 | 28.48763 | -35.59994 | 39047 ft | 493 kts | 231° |
| 2026-05-04 18:21 | 28.43671 | -35.65267 | 39036 ft | 493 kts | 231° |
| 2026-05-04 18:22 | 28.38623 | -35.70487 | 39043 ft | 493 kts | 231° |
| 2026-05-04 18:22 | 28.33542 | -35.75734 | 39008 ft | 493 kts | 231° |
| 2026-05-04 18:23 | 28.28486 | -35.80948 | 39048 ft | 492 kts | 231° |
| 2026-05-04 18:23 | 28.23420 | -35.86166 | 39048 ft | 493 kts | 231° |
| 2026-05-04 18:24 | 28.18336 | -35.91394 | 39052 ft | 493 kts | 230° |
| 2026-05-04 18:24 | 28.13257 | -35.96611 | 39047 ft | 493 kts | 230° |
| 2026-05-04 18:25 | 28.08162 | -36.01837 | 39031 ft | 494 kts | 230° |
| 2026-05-04 18:25 | 28.03082 | -36.07041 | 39044 ft | 493 kts | 230° |
| 2026-05-04 18:26 | 27.97971 | -36.12268 | 39050 ft | 494 kts | 230° |
| 2026-05-04 18:26 | 27.92884 | -36.17466 | 39049 ft | 494 kts | 230° |
| 2026-05-04 18:27 | 27.87776 | -36.22678 | 39050 ft | 494 kts | 230° |
| 2026-05-04 18:27 | 27.82694 | -36.27856 | 39033 ft | 494 kts | 230° |
| 2026-05-04 18:28 | 27.77581 | -36.33058 | 39047 ft | 493 kts | 230° |
| 2026-05-04 18:28 | 27.72492 | -36.38230 | 39048 ft | 493 kts | 230° |
| 2026-05-04 18:29 | 27.67376 | -36.43422 | 39052 ft | 493 kts | 230° |
| 2026-05-04 18:29 | 27.62300 | -36.48567 | 39054 ft | 493 kts | 230° |
| 2026-05-04 18:30 | 27.54641 | -36.56318 | 39057 ft | 492 kts | 230° |
| 2026-05-04 18:31 | 27.49571 | -36.61439 | 39057 ft | 492 kts | 230° |
| 2026-05-04 18:31 | 27.44456 | -36.66601 | 39059 ft | 492 kts | 230° |
| 2026-05-04 18:32 | 27.39367 | -36.71728 | 39041 ft | 492 kts | 229° |
| 2026-05-04 18:32 | 27.34259 | -36.76869 | 39046 ft | 491 kts | 229° |
| 2026-05-04 18:33 | 27.29188 | -36.81966 | 39051 ft | 491 kts | 229° |
| 2026-05-04 18:33 | 27.24083 | -36.87091 | 39058 ft | 491 kts | 229° |
| 2026-05-04 18:34 | 27.19001 | -36.92185 | 39057 ft | 491 kts | 229° |
| 2026-05-04 18:34 | 27.13881 | -36.97312 | 39061 ft | 492 kts | 229° |
| 2026-05-04 18:35 | 27.08790 | -37.02403 | 39052 ft | 492 kts | 229° |
| 2026-05-04 18:35 | 27.03701 | -37.07486 | 39052 ft | 492 kts | 228° |
| 2026-05-04 18:36 | 26.98587 | -37.12587 | 39057 ft | 492 kts | 228° |
| 2026-05-04 18:36 | 26.93458 | -37.17695 | 39076 ft | 492 kts | 228° |
| 2026-05-04 18:37 | 26.88359 | -37.22769 | 39058 ft | 492 kts | 228° |
| 2026-05-04 18:37 | 26.83216 | -37.27879 | 39066 ft | 493 kts | 227° |
| 2026-05-04 18:38 | 26.78100 | -37.32956 | 39065 ft | 493 kts | 227° |
| 2026-05-04 18:38 | 26.72966 | -37.38045 | 39066 ft | 494 kts | 227° |
| 2026-05-04 18:39 | 26.67811 | -37.43148 | 39065 ft | 494 kts | 227° |
| 2026-05-04 18:39 | 26.62662 | -37.48238 | 39052 ft | 493 kts | 227° |
| 2026-05-04 18:40 | 26.57540 | -37.53295 | 39066 ft | 493 kts | 227° |
| 2026-05-04 18:40 | 26.52395 | -37.58369 | 39072 ft | 493 kts | 227° |
| 2026-05-04 18:41 | 26.47240 | -37.63447 | 39071 ft | 494 kts | 227° |
| 2026-05-04 18:41 | 26.42075 | -37.68528 | 39071 ft | 494 kts | 227° |
| 2026-05-04 18:42 | 26.36930 | -37.73583 | 39065 ft | 494 kts | 226° |
| 2026-05-04 18:42 | 26.31771 | -37.78646 | 39067 ft | 494 kts | 226° |
| 2026-05-04 18:43 | 26.26635 | -37.83679 | 39076 ft | 494 kts | 226° |
| 2026-05-04 18:43 | 26.21469 | -37.88736 | 39074 ft | 494 kts | 226° |
| 2026-05-04 18:44 | 26.16289 | -37.93801 | 39073 ft | 494 kts | 226° |
| 2026-05-04 18:44 | 26.11140 | -37.98828 | 39067 ft | 494 kts | 226° |
| 2026-05-04 18:45 | 26.05989 | -38.03853 | 39075 ft | 494 kts | 226° |
| 2026-05-04 18:45 | 26.00805 | -38.08902 | 39068 ft | 494 kts | 226° |
| 2026-05-04 18:46 | 25.95649 | -38.13918 | 39081 ft | 494 kts | 226° |
| 2026-05-04 18:46 | 25.90463 | -38.18957 | 39078 ft | 494 kts | 226° |
| 2026-05-04 18:47 | 25.85310 | -38.23959 | 39071 ft | 494 kts | 225° |
| 2026-05-04 18:47 | 25.80125 | -38.28985 | 39080 ft | 494 kts | 225° |
| 2026-05-04 18:48 | 25.74925 | -38.34020 | 39077 ft | 495 kts | 225° |
| 2026-05-04 18:48 | 25.69748 | -38.39027 | 39079 ft | 495 kts | 225° |
| 2026-05-04 18:49 | 25.64544 | -38.44053 | 39063 ft | 495 kts | 225° |
| 2026-05-04 18:49 | 25.59379 | -38.49036 | 39078 ft | 495 kts | 225° |
| 2026-05-04 18:50 | 25.54165 | -38.54060 | 39085 ft | 495 kts | 225° |
| 2026-05-04 18:50 | 25.48986 | -38.59045 | 39085 ft | 496 kts | 225° |
| 2026-05-04 18:51 | 25.43774 | -38.64055 | 39082 ft | 496 kts | 225° |
| 2026-05-04 18:51 | 25.38546 | -38.69075 | 39077 ft | 496 kts | 225° |
| 2026-05-04 18:52 | 25.33340 | -38.74067 | 39092 ft | 497 kts | 225° |
| 2026-05-04 18:52 | 25.28111 | -38.79076 | 39093 ft | 497 kts | 225° |
| 2026-05-04 18:53 | 25.22901 | -38.84060 | 39084 ft | 497 kts | 225° |
| 2026-05-04 18:53 | 25.17666 | -38.89063 | 39086 ft | 497 kts | 225° |
| 2026-05-04 18:54 | 25.12446 | -38.94045 | 39084 ft | 497 kts | 225° |
| 2026-05-04 18:54 | 25.07202 | -38.99044 | 39087 ft | 497 kts | 225° |
| 2026-05-04 18:55 | 25.01994 | -39.04004 | 39086 ft | 497 kts | 225° |
| 2026-05-04 18:55 | 24.94122 | -39.11488 | 39084 ft | 496 kts | 225° |
| 2026-05-04 18:56 | 24.88912 | -39.16436 | 39080 ft | 496 kts | 225° |
| 2026-05-04 18:56 | 24.83702 | -39.21376 | 39089 ft | 496 kts | 225° |
| 2026-05-04 18:57 | 24.78474 | -39.26329 | 39085 ft | 496 kts | 225° |
| 2026-05-04 18:57 | 24.73229 | -39.31292 | 39090 ft | 496 kts | 225° |
| 2026-05-04 18:58 | 24.67991 | -39.36243 | 39075 ft | 497 kts | 225° |
| 2026-05-04 18:58 | 24.62774 | -39.41168 | 39083 ft | 497 kts | 225° |
| 2026-05-04 18:59 | 24.57502 | -39.46139 | 39091 ft | 498 kts | 225° |
| 2026-05-04 18:59 | 24.52266 | -39.51071 | 39091 ft | 499 kts | 224° |
| 2026-05-04 19:00 | 24.46972 | -39.56051 | 39093 ft | 500 kts | 224° |
| 2026-05-04 19:00 | 24.41710 | -39.60996 | 39084 ft | 501 kts | 224° |
| 2026-05-04 19:01 | 24.36407 | -39.65974 | 39090 ft | 502 kts | 224° |
| 2026-05-04 19:01 | 24.31114 | -39.70937 | 39092 ft | 503 kts | 224° |
| 2026-05-04 19:02 | 24.25786 | -39.75926 | 39091 ft | 503 kts | 224° |
| 2026-05-04 19:02 | 24.20457 | -39.80910 | 39085 ft | 502 kts | 224° |
| 2026-05-04 19:03 | 24.15169 | -39.85852 | 39090 ft | 501 kts | 224° |
| 2026-05-04 19:03 | 24.09851 | -39.90816 | 39090 ft | 501 kts | 224° |
| 2026-05-04 19:04 | 24.04565 | -39.95746 | 39094 ft | 501 kts | 224° |
| 2026-05-04 19:04 | 23.99225 | -40.00653 | 39098 ft | 502 kts | 220° |
| 2026-05-04 19:05 | 23.93529 | -40.05119 | 39087 ft | 503 kts | 218° |
| 2026-05-04 19:05 | 23.87822 | -40.09487 | 39096 ft | 503 kts | 218° |
| 2026-05-04 19:06 | 23.82107 | -40.13881 | 39097 ft | 503 kts | 218° |
| 2026-05-04 19:06 | 23.76392 | -40.18300 | 39099 ft | 503 kts | 218° |
| 2026-05-04 19:07 | 23.70674 | -40.22727 | 39095 ft | 503 kts | 218° |
| 2026-05-04 19:07 | 23.64979 | -40.27130 | 39085 ft | 503 kts | 218° |
| 2026-05-04 19:08 | 23.59287 | -40.31526 | 39102 ft | 503 kts | 218° |
| 2026-05-04 19:08 | 23.54530 | -40.35193 | 39099 ft | 503 kts | 218° |
| 2026-05-04 19:09 | 23.48802 | -40.39606 | 39093 ft | 503 kts | 218° |
| 2026-05-04 19:09 | 23.42142 | -40.44731 | 39091 ft | 503 kts | 218° |
| 2026-05-04 19:10 | 23.37389 | -40.48384 | 39092 ft | 503 kts | 218° |
| 2026-05-04 19:10 | 23.31644 | -40.52796 | 39098 ft | 503 kts | 218° |
| 2026-05-04 19:11 | 23.25915 | -40.57191 | 39097 ft | 503 kts | 218° |
| 2026-05-04 19:11 | 23.20212 | -40.61561 | 39096 ft | 503 kts | 218° |
| 2026-05-04 19:12 | 23.11639 | -40.68120 | 39098 ft | 503 kts | 218° |
| 2026-05-04 19:13 | 23.05897 | -40.72509 | 39088 ft | 503 kts | 218° |
| 2026-05-04 19:13 | 23.00196 | -40.76861 | 39096 ft | 503 kts | 218° |
| 2026-05-04 19:14 | 22.94462 | -40.81234 | 39097 ft | 503 kts | 218° |
| 2026-05-04 19:14 | 22.88727 | -40.85602 | 39099 ft | 502 kts | 218° |
| 2026-05-04 19:15 | 22.83036 | -40.89933 | 39097 ft | 501 kts | 218° |
| 2026-05-04 19:15 | 22.77345 | -40.94260 | 39087 ft | 501 kts | 218° |
| 2026-05-04 19:16 | 22.71627 | -40.98602 | 39098 ft | 501 kts | 218° |
| 2026-05-04 19:16 | 22.65891 | -41.02954 | 39098 ft | 502 kts | 218° |
| 2026-05-04 19:17 | 22.60202 | -41.07265 | 39099 ft | 502 kts | 217° |
| 2026-05-04 19:17 | 22.54469 | -41.11605 | 39095 ft | 501 kts | 217° |
| 2026-05-04 19:18 | 22.48768 | -41.15916 | 39098 ft | 501 kts | 217° |
| 2026-05-04 19:18 | 22.43053 | -41.20234 | 39098 ft | 500 kts | 217° |
| 2026-05-04 19:19 | 22.37379 | -41.24516 | 39094 ft | 500 kts | 217° |
| 2026-05-04 19:19 | 22.31658 | -41.28829 | 39111 ft | 499 kts | 217° |
| 2026-05-04 19:20 | 22.25959 | -41.33122 | 39091 ft | 498 kts | 217° |
| 2026-05-04 19:20 | 22.20289 | -41.37389 | 39084 ft | 498 kts | 217° |
| 2026-05-04 19:21 | 22.14634 | -41.41639 | 39087 ft | 498 kts | 217° |
| 2026-05-04 19:21 | 22.08957 | -41.45902 | 39099 ft | 498 kts | 217° |
| 2026-05-04 19:22 | 22.03255 | -41.50180 | 39101 ft | 498 kts | 217° |
| 2026-05-04 19:22 | 21.97542 | -41.54462 | 39105 ft | 498 kts | 217° |
| 2026-05-04 19:23 | 21.91877 | -41.58703 | 39077 ft | 498 kts | 217° |
| 2026-05-04 19:23 | 21.86176 | -41.62967 | 39095 ft | 498 kts | 217° |
| 2026-05-04 19:24 | 21.80513 | -41.67198 | 39093 ft | 498 kts | 217° |
| 2026-05-04 19:24 | 21.74812 | -41.71454 | 39093 ft | 498 kts | 217° |
| 2026-05-04 19:25 | 21.69141 | -41.75683 | 39094 ft | 498 kts | 217° |
| 2026-05-04 19:25 | 21.63443 | -41.79928 | 39092 ft | 497 kts | 217° |
| 2026-05-04 19:26 | 21.57783 | -41.84141 | 39092 ft | 496 kts | 217° |
| 2026-05-04 19:26 | 21.52098 | -41.88368 | 39092 ft | 496 kts | 217° |
| 2026-05-04 19:27 | 21.46417 | -41.92588 | 39093 ft | 495 kts | 217° |
| 2026-05-04 19:27 | 21.40758 | -41.96787 | 39090 ft | 495 kts | 217° |
| 2026-05-04 19:28 | 21.35119 | -42.00968 | 39083 ft | 495 kts | 217° |
| 2026-05-04 19:28 | 21.29432 | -42.05181 | 39087 ft | 495 kts | 217° |
| 2026-05-04 19:29 | 21.23769 | -42.09372 | 39094 ft | 496 kts | 217° |
| 2026-05-04 19:29 | 21.18076 | -42.13581 | 39088 ft | 497 kts | 217° |
| 2026-05-04 19:30 | 21.12404 | -42.17770 | 39088 ft | 498 kts | 217° |
| 2026-05-04 19:30 | 21.06691 | -42.21986 | 39083 ft | 498 kts | 217° |
| 2026-05-04 19:31 | 21.00960 | -42.26211 | 39093 ft | 498 kts | 217° |
| 2026-05-04 19:31 | 20.95279 | -42.30394 | 39089 ft | 498 kts | 217° |
| 2026-05-04 19:32 | 20.89562 | -42.34600 | 39086 ft | 498 kts | 217° |
| 2026-05-04 19:32 | 20.83877 | -42.38779 | 39087 ft | 497 kts | 217° |
| 2026-05-04 19:33 | 20.78154 | -42.42983 | 39080 ft | 497 kts | 217° |
| 2026-05-04 19:33 | 20.72480 | -42.47146 | 39086 ft | 496 kts | 216° |
| 2026-05-04 19:34 | 20.66776 | -42.51328 | 39084 ft | 495 kts | 216° |
| 2026-05-04 19:34 | 20.61121 | -42.55469 | 39087 ft | 495 kts | 216° |
| 2026-05-04 19:35 | 20.55432 | -42.59632 | 39086 ft | 494 kts | 216° |
| 2026-05-04 19:35 | 20.49789 | -42.63758 | 39077 ft | 494 kts | 216° |
| 2026-05-04 19:36 | 20.44093 | -42.67917 | 39085 ft | 495 kts | 216° |
| 2026-05-04 19:36 | 20.38407 | -42.72067 | 39083 ft | 495 kts | 216° |
| 2026-05-04 19:37 | 20.32756 | -42.76187 | 39081 ft | 495 kts | 216° |
| 2026-05-04 19:37 | 20.27052 | -42.80342 | 39083 ft | 495 kts | 216° |
| 2026-05-04 19:38 | 20.21390 | -42.84462 | 39075 ft | 495 kts | 216° |
| 2026-05-04 19:38 | 20.15684 | -42.88612 | 39077 ft | 495 kts | 216° |
| 2026-05-04 19:39 | 20.10021 | -42.92727 | 39075 ft | 495 kts | 216° |
| 2026-05-04 19:39 | 20.04322 | -42.96864 | 39077 ft | 495 kts | 216° |
| 2026-05-04 19:40 | 19.98462 | -43.00631 | 39079 ft | 496 kts | 207° |
| 2026-05-04 19:40 | 19.92041 | -43.03386 | 39077 ft | 496 kts | 202° |
| 2026-05-04 19:41 | 19.85576 | -43.05979 | 39082 ft | 496 kts | 202° |
| 2026-05-04 19:41 | 19.79165 | -43.08579 | 39076 ft | 496 kts | 202° |
| 2026-05-04 19:42 | 19.72713 | -43.11225 | 39071 ft | 495 kts | 202° |
| 2026-05-04 19:42 | 19.66322 | -43.13853 | 39072 ft | 494 kts | 202° |
| 2026-05-04 19:43 | 19.59888 | -43.16497 | 39078 ft | 494 kts | 202° |
| 2026-05-04 19:43 | 19.53516 | -43.19112 | 39072 ft | 494 kts | 202° |
| 2026-05-04 19:44 | 19.47095 | -43.21743 | 39070 ft | 493 kts | 202° |
| 2026-05-04 19:44 | 19.40733 | -43.24348 | 39072 ft | 492 kts | 202° |
| 2026-05-04 19:45 | 19.34355 | -43.26957 | 39075 ft | 491 kts | 202° |
| 2026-05-04 19:45 | 19.27956 | -43.29573 | 39078 ft | 491 kts | 202° |
| 2026-05-04 19:46 | 19.21606 | -43.32170 | 39087 ft | 490 kts | 202° |
| 2026-05-04 19:46 | 19.15226 | -43.34762 | 39068 ft | 489 kts | 202° |
| 2026-05-04 19:47 | 19.08914 | -43.37336 | 39062 ft | 489 kts | 202° |
| 2026-05-04 19:47 | 19.02554 | -43.39931 | 39077 ft | 489 kts | 202° |
| 2026-05-04 19:48 | 18.96229 | -43.42509 | 39079 ft | 489 kts | 203° |
| 2026-05-04 19:48 | 18.89894 | -43.45155 | 39072 ft | 488 kts | 203° |
| 2026-05-04 19:49 | 18.83586 | -43.47693 | 39076 ft | 488 kts | 202° |
| 2026-05-04 19:49 | 18.77217 | -43.50244 | 39071 ft | 488 kts | 203° |
| 2026-05-04 19:50 | 18.70903 | -43.52795 | 39068 ft | 488 kts | 203° |
| 2026-05-04 19:50 | 18.64551 | -43.55371 | 39072 ft | 487 kts | 204° |
| 2026-05-04 19:51 | 18.58224 | -43.57980 | 39062 ft | 487 kts | 203° |
| 2026-05-04 19:51 | 18.51907 | -43.60505 | 39069 ft | 487 kts | 203° |
| 2026-05-04 19:52 | 18.45569 | -43.63053 | 39068 ft | 487 kts | 203° |
| 2026-05-04 19:52 | 18.39272 | -43.65598 | 39067 ft | 487 kts | 203° |
| 2026-05-04 19:53 | 18.32944 | -43.68156 | 39067 ft | 487 kts | 203° |
| 2026-05-04 19:53 | 18.26635 | -43.70703 | 39066 ft | 487 kts | 203° |
| 2026-05-04 19:54 | 18.20297 | -43.73260 | 39065 ft | 487 kts | 203° |
| 2026-05-04 19:54 | 18.13964 | -43.75811 | 39066 ft | 487 kts | 203° |
| 2026-05-04 19:55 | 18.07683 | -43.78331 | 39067 ft | 486 kts | 204° |
| 2026-05-04 19:55 | 18.01355 | -43.80861 | 39060 ft | 485 kts | 204° |
| 2026-05-04 19:56 | 17.95056 | -43.83405 | 39052 ft | 484 kts | 204° |
| 2026-05-04 19:56 | 17.88747 | -43.85950 | 39155 ft | 487 kts | 204° |
| 2026-05-04 19:56 | 17.85612 | -43.87210 | 39340 ft | 486 kts | 204° |
| 2026-05-04 19:57 | 17.82452 | -43.88479 | 39651 ft | 482 kts | 204° |
| 2026-05-04 19:57 | 17.79327 | -43.89750 | 39934 ft | 480 kts | 204° |
| 2026-05-04 19:57 | 17.76193 | -43.91009 | 39974 ft | 483 kts | 204° |
| 2026-05-04 19:58 | 17.69925 | -43.93503 | 40054 ft | 486 kts | 204° |
| 2026-05-04 19:58 | 17.63609 | -43.96024 | 40068 ft | 485 kts | 204° |
| 2026-05-04 19:59 | 17.58357 | -43.98126 | 40063 ft | 484 kts | 204° |
| 2026-05-04 19:59 | 17.52056 | -44.00648 | 40063 ft | 483 kts | 204° |
| 2026-05-04 20:00 | 17.45804 | -44.03147 | 40054 ft | 481 kts | 204° |
| 2026-05-04 20:00 | 17.38525 | -44.06053 | 40064 ft | 480 kts | 204° |
| 2026-05-04 20:01 | 17.33338 | -44.08123 | 40061 ft | 479 kts | 204° |
| 2026-05-04 20:01 | 17.27130 | -44.10598 | 40055 ft | 478 kts | 204° |
| 2026-05-04 20:02 | 17.20921 | -44.13072 | 40060 ft | 477 kts | 204° |
| 2026-05-04 20:02 | 17.14742 | -44.15532 | 40059 ft | 476 kts | 204° |
| 2026-05-04 20:03 | 17.08529 | -44.18004 | 40062 ft | 476 kts | 204° |
| 2026-05-04 20:03 | 17.02361 | -44.20457 | 40063 ft | 476 kts | 204° |
| 2026-05-04 20:04 | 16.96165 | -44.22922 | 40058 ft | 474 kts | 205° |
| 2026-05-04 20:04 | 16.90011 | -44.25369 | 40051 ft | 473 kts | 204° |
| 2026-05-04 20:05 | 16.83880 | -44.27791 | 40059 ft | 472 kts | 204° |
| 2026-05-04 20:05 | 16.77723 | -44.30232 | 40058 ft | 472 kts | 204° |
| 2026-05-04 20:06 | 16.71601 | -44.32660 | 40055 ft | 472 kts | 204° |
| 2026-05-04 20:06 | 16.65451 | -44.35095 | 40058 ft | 471 kts | 204° |
| 2026-05-04 20:07 | 16.59313 | -44.37524 | 40063 ft | 471 kts | 204° |
| 2026-05-04 20:07 | 16.53203 | -44.39940 | 40059 ft | 470 kts | 204° |
| 2026-05-04 20:08 | 16.47078 | -44.42360 | 40053 ft | 470 kts | 204° |
| 2026-05-04 20:08 | 16.40982 | -44.44767 | 40059 ft | 470 kts | 204° |
| 2026-05-04 20:09 | 16.34861 | -44.47182 | 40057 ft | 470 kts | 204° |
| 2026-05-04 20:09 | 16.28733 | -44.49598 | 40061 ft | 470 kts | 204° |
| 2026-05-04 20:10 | 16.22651 | -44.51995 | 40057 ft | 470 kts | 204° |
| 2026-05-04 20:10 | 16.16527 | -44.54406 | 40058 ft | 470 kts | 204° |
| 2026-05-04 20:11 | 16.10399 | -44.56818 | 40052 ft | 470 kts | 204° |
| 2026-05-04 20:11 | 16.04302 | -44.59215 | 40051 ft | 469 kts | 204° |
| 2026-05-04 20:12 | 15.98188 | -44.61618 | 40046 ft | 469 kts | 204° |
| 2026-05-04 20:12 | 15.92111 | -44.64005 | 40045 ft | 469 kts | 204° |
| 2026-05-04 20:13 | 15.85995 | -44.66405 | 40047 ft | 469 kts | 205° |
| 2026-05-04 20:13 | 15.79927 | -44.68785 | 40055 ft | 468 kts | 205° |
| 2026-05-04 20:14 | 15.73831 | -44.71175 | 40055 ft | 468 kts | 205° |
| 2026-05-04 20:14 | 15.67745 | -44.73559 | 40054 ft | 467 kts | 205° |
| 2026-05-04 20:15 | 15.61688 | -44.75931 | 40053 ft | 467 kts | 205° |
| 2026-05-04 20:15 | 15.55607 | -44.78310 | 40055 ft | 467 kts | 205° |
| 2026-05-04 20:16 | 15.49512 | -44.80693 | 40057 ft | 467 kts | 205° |
| 2026-05-04 20:16 | 15.43458 | -44.83059 | 40048 ft | 467 kts | 204° |
| 2026-05-04 20:17 | 15.37389 | -44.85429 | 40053 ft | 467 kts | 204° |
| 2026-05-04 20:17 | 15.31288 | -44.87810 | 40041 ft | 467 kts | 205° |
| 2026-05-04 20:18 | 15.25224 | -44.90175 | 40056 ft | 467 kts | 205° |
| 2026-05-04 20:18 | 15.19131 | -44.92550 | 40054 ft | 466 kts | 205° |
| 2026-05-04 20:19 | 15.13037 | -44.94924 | 40060 ft | 466 kts | 205° |
| 2026-05-04 20:19 | 15.06997 | -44.97277 | 40040 ft | 466 kts | 205° |
| 2026-05-04 20:20 | 15.00933 | -44.99673 | 40046 ft | 463 kts | 207° |
| 2026-05-04 20:20 | 14.95331 | -45.02770 | 40046 ft | 457 kts | 215° |
| 2026-05-04 20:21 | 14.89862 | -45.06178 | 40049 ft | 457 kts | 215° |
| 2026-05-04 20:21 | 14.81710 | -45.11223 | 40043 ft | 456 kts | 214° |
| 2026-05-04 20:22 | 14.76279 | -45.14557 | 40042 ft | 455 kts | 214° |
| 2026-05-04 20:22 | 14.70831 | -45.17895 | 40049 ft | 454 kts | 214° |
| 2026-05-04 20:23 | 14.65381 | -45.21233 | 40044 ft | 454 kts | 214° |
| 2026-05-04 20:23 | 14.59960 | -45.24552 | 40046 ft | 455 kts | 214° |
| 2026-05-04 20:24 | 14.54507 | -45.27888 | 40034 ft | 454 kts | 214° |
| 2026-05-04 20:24 | 14.49092 | -45.31199 | 40045 ft | 454 kts | 214° |
| 2026-05-04 20:25 | 14.43645 | -45.34528 | 40043 ft | 455 kts | 214° |
| 2026-05-04 20:25 | 14.38226 | -45.37838 | 40042 ft | 455 kts | 214° |
| 2026-05-04 20:26 | 14.32763 | -45.41173 | 40043 ft | 455 kts | 214° |
| 2026-05-04 20:26 | 14.27319 | -45.44494 | 40045 ft | 455 kts | 214° |
| 2026-05-04 20:27 | 14.21904 | -45.47796 | 40044 ft | 455 kts | 214° |
| 2026-05-04 20:27 | 14.16437 | -45.51128 | 40038 ft | 455 kts | 214° |
| 2026-05-04 20:28 | 14.10988 | -45.54447 | 40042 ft | 455 kts | 214° |
| 2026-05-04 20:28 | 14.05562 | -45.57749 | 40042 ft | 455 kts | 214° |
| 2026-05-04 20:29 | 14.00105 | -45.61069 | 40040 ft | 455 kts | 214° |
| 2026-05-04 20:29 | 13.94664 | -45.64378 | 40038 ft | 455 kts | 214° |
| 2026-05-04 20:30 | 13.89197 | -45.67700 | 40035 ft | 455 kts | 214° |
| 2026-05-04 20:30 | 13.83750 | -45.71008 | 40041 ft | 455 kts | 214° |
| 2026-05-04 20:31 | 13.78322 | -45.74303 | 40035 ft | 455 kts | 214° |
| 2026-05-04 20:31 | 13.72854 | -45.77621 | 40033 ft | 455 kts | 214° |
| 2026-05-04 20:32 | 13.67404 | -45.80926 | 40026 ft | 455 kts | 214° |
| 2026-05-04 20:32 | 13.61937 | -45.84239 | 40033 ft | 455 kts | 214° |
| 2026-05-04 20:33 | 13.56506 | -45.87528 | 40038 ft | 455 kts | 214° |
| 2026-05-04 20:33 | 13.51033 | -45.90842 | 40031 ft | 455 kts | 214° |
| 2026-05-04 20:34 | 13.45595 | -45.94132 | 40018 ft | 455 kts | 214° |
| 2026-05-04 20:34 | 13.40135 | -45.97434 | 40025 ft | 455 kts | 214° |
| 2026-05-04 20:35 | 13.34707 | -46.00714 | 40040 ft | 454 kts | 214° |
| 2026-05-04 20:35 | 13.29250 | -46.04011 | 40039 ft | 454 kts | 214° |
| 2026-05-04 20:36 | 13.23788 | -46.07309 | 40021 ft | 454 kts | 214° |
| 2026-05-04 20:36 | 13.18355 | -46.10587 | 40020 ft | 454 kts | 214° |
| 2026-05-04 20:37 | 13.12887 | -46.13886 | 40035 ft | 454 kts | 214° |
| 2026-05-04 20:37 | 13.07448 | -46.17165 | 40032 ft | 454 kts | 214° |
| 2026-05-04 20:38 | 13.02019 | -46.20436 | 40034 ft | 455 kts | 214° |
| 2026-05-04 20:38 | 12.96533 | -46.23739 | 40026 ft | 455 kts | 214° |
| 2026-05-04 20:39 | 12.91073 | -46.27026 | 40026 ft | 454 kts | 214° |
| 2026-05-04 20:39 | 12.85637 | -46.30296 | 40027 ft | 454 kts | 214° |
| 2026-05-04 20:40 | 12.80208 | -46.33560 | 40027 ft | 454 kts | 214° |
| 2026-05-04 20:40 | 12.74745 | -46.36843 | 40022 ft | 454 kts | 214° |
| 2026-05-04 20:41 | 12.69296 | -46.40116 | 40024 ft | 453 kts | 214° |
| 2026-05-04 20:41 | 12.63882 | -46.43367 | 40027 ft | 453 kts | 214° |
| 2026-05-04 20:42 | 12.58442 | -46.46631 | 40025 ft | 453 kts | 214° |
| 2026-05-04 20:42 | 12.52997 | -46.49897 | 40014 ft | 452 kts | 214° |
| 2026-05-04 20:43 | 12.47597 | -46.53134 | 40024 ft | 451 kts | 214° |
| 2026-05-04 20:43 | 12.42167 | -46.56388 | 40023 ft | 450 kts | 214° |
| 2026-05-04 20:44 | 12.36773 | -46.59619 | 40022 ft | 450 kts | 214° |
| 2026-05-04 20:44 | 12.31362 | -46.62858 | 40026 ft | 450 kts | 214° |
| 2026-05-04 20:45 | 12.25976 | -46.66080 | 40032 ft | 450 kts | 214° |
| 2026-05-04 20:45 | 12.20565 | -46.69316 | 40019 ft | 449 kts | 214° |
| 2026-05-04 20:46 | 12.15191 | -46.72528 | 40026 ft | 449 kts | 214° |
| 2026-05-04 20:46 | 12.09784 | -46.75759 | 40026 ft | 449 kts | 214° |
| 2026-05-04 20:47 | 12.04378 | -46.78987 | 40020 ft | 449 kts | 214° |
| 2026-05-04 20:47 | 11.99002 | -46.82196 | 40024 ft | 448 kts | 214° |
| 2026-05-04 20:48 | 11.93613 | -46.85411 | 40018 ft | 448 kts | 214° |
| 2026-05-04 20:48 | 11.88257 | -46.88605 | 40019 ft | 448 kts | 214° |
| 2026-05-04 20:49 | 11.82868 | -46.91818 | 40019 ft | 447 kts | 214° |
| 2026-05-04 20:49 | 11.77508 | -46.95011 | 40016 ft | 447 kts | 214° |
| 2026-05-04 20:50 | 11.73042 | -46.97671 | 40017 ft | 446 kts | 214° |
| 2026-05-04 20:50 | 11.66792 | -47.01392 | 40019 ft | 446 kts | 214° |
| 2026-05-04 20:51 | 11.61446 | -47.04573 | 40019 ft | 446 kts | 214° |
| 2026-05-04 20:51 | 11.56973 | -47.07233 | 40008 ft | 446 kts | 214° |
| 2026-05-04 20:52 | 11.51593 | -47.10431 | 40017 ft | 446 kts | 214° |
| 2026-05-04 20:52 | 11.46263 | -47.13599 | 40017 ft | 446 kts | 214° |
| 2026-05-04 20:53 | 11.40876 | -47.16799 | 40016 ft | 446 kts | 214° |
| 2026-05-04 20:53 | 11.35555 | -47.19958 | 40011 ft | 446 kts | 214° |
| 2026-05-04 20:54 | 11.30192 | -47.23140 | 40007 ft | 445 kts | 214° |
| 2026-05-04 20:54 | 11.24821 | -47.26326 | 40014 ft | 445 kts | 214° |
| 2026-05-04 20:55 | 11.19491 | -47.29487 | 40010 ft | 445 kts | 214° |
| 2026-05-04 20:55 | 11.14117 | -47.32672 | 40011 ft | 445 kts | 214° |
| 2026-05-04 20:56 | 11.08785 | -47.35831 | 39999 ft | 445 kts | 214° |
| 2026-05-04 20:56 | 11.03453 | -47.38988 | 40010 ft | 444 kts | 214° |
| 2026-05-04 20:57 | 10.98101 | -47.42156 | 40007 ft | 444 kts | 214° |
| 2026-05-04 20:57 | 10.92739 | -47.45329 | 40005 ft | 444 kts | 214° |
| 2026-05-04 20:58 | 10.87422 | -47.48474 | 40010 ft | 445 kts | 214° |
| 2026-05-04 20:58 | 10.82064 | -47.51641 | 40006 ft | 445 kts | 214° |
| 2026-05-04 20:59 | 10.76722 | -47.54798 | 40006 ft | 445 kts | 214° |
| 2026-05-04 20:59 | 10.71346 | -47.57973 | 40005 ft | 445 kts | 214° |
| 2026-05-04 21:00 | 10.65986 | -47.61138 | 40008 ft | 446 kts | 214° |
| 2026-05-04 21:00 | 10.60649 | -47.64288 | 40010 ft | 446 kts | 214° |
| 2026-05-04 21:01 | 10.55260 | -47.67468 | 40007 ft | 446 kts | 214° |
| 2026-05-04 21:01 | 10.49918 | -47.70618 | 39998 ft | 445 kts | 214° |
| 2026-05-04 21:02 | 10.44555 | -47.73779 | 39999 ft | 444 kts | 214° |
| 2026-05-04 21:02 | 10.39231 | -47.76916 | 39999 ft | 443 kts | 214° |
| 2026-05-04 21:03 | 10.33886 | -47.80065 | 39994 ft | 442 kts | 214° |
| 2026-05-04 21:03 | 10.28555 | -47.83204 | 39997 ft | 441 kts | 214° |
| 2026-05-04 21:04 | 10.23269 | -47.86315 | 40000 ft | 441 kts | 214° |
| 2026-05-04 21:04 | 10.17954 | -47.89443 | 39994 ft | 440 kts | 214° |
| 2026-05-04 21:05 | 10.12649 | -47.92563 | 39994 ft | 440 kts | 214° |
| 2026-05-04 21:05 | 10.07358 | -47.95675 | 39993 ft | 440 kts | 214° |
| 2026-05-04 21:06 | 10.02221 | -47.98954 | 39989 ft | 434 kts | 223° |
| 2026-05-04 21:06 | 9.97919 | -48.03202 | 39999 ft | 430 kts | 232° |
| 2026-05-04 21:07 | 9.94462 | -48.08089 | 40004 ft | 428 kts | 238° |
| 2026-05-04 21:07 | 9.91136 | -48.13113 | 39996 ft | 428 kts | 238° |
| 2026-05-04 21:08 | 9.87809 | -48.18117 | 39995 ft | 429 kts | 238° |
| 2026-05-04 21:08 | 9.84441 | -48.23146 | 39996 ft | 430 kts | 237° |
| 2026-05-04 21:09 | 9.81081 | -48.28142 | 39995 ft | 430 kts | 237° |
| 2026-05-04 21:09 | 9.77700 | -48.33165 | 39995 ft | 431 kts | 237° |
| 2026-05-04 21:10 | 9.74330 | -48.38169 | 39994 ft | 431 kts | 237° |
| 2026-05-04 21:10 | 9.70935 | -48.43209 | 39992 ft | 431 kts | 237° |
| 2026-05-04 21:11 | 9.67560 | -48.48218 | 39991 ft | 432 kts | 237° |
| 2026-05-04 21:11 | 9.64159 | -48.53262 | 39992 ft | 432 kts | 237° |
| 2026-05-04 21:12 | 9.60785 | -48.58267 | 40001 ft | 432 kts | 237° |
| 2026-05-04 21:12 | 9.57400 | -48.63283 | 39985 ft | 432 kts | 237° |
| 2026-05-04 21:13 | 9.53991 | -48.68334 | 39982 ft | 432 kts | 237° |
| 2026-05-04 21:13 | 9.50608 | -48.73345 | 39984 ft | 432 kts | 237° |
| 2026-05-04 21:14 | 9.47208 | -48.78377 | 39984 ft | 432 kts | 237° |
| 2026-05-04 21:14 | 9.43808 | -48.83409 | 39996 ft | 432 kts | 237° |
| 2026-05-04 21:15 | 9.40423 | -48.88416 | 39973 ft | 432 kts | 237° |
| 2026-05-04 21:15 | 9.37021 | -48.93446 | 39982 ft | 433 kts | 237° |
| 2026-05-04 21:16 | 9.33629 | -48.98459 | 39988 ft | 433 kts | 237° |
| 2026-05-04 21:16 | 9.30218 | -49.03498 | 39981 ft | 433 kts | 237° |
| 2026-05-04 21:17 | 9.26804 | -49.08541 | 39987 ft | 434 kts | 237° |
| 2026-05-04 21:17 | 9.23405 | -49.13558 | 39981 ft | 434 kts | 237° |
| 2026-05-04 21:18 | 9.19989 | -49.18599 | 39988 ft | 434 kts | 237° |
| 2026-05-04 21:18 | 9.16564 | -49.23651 | 39959 ft | 435 kts | 237° |
| 2026-05-04 21:19 | 9.13155 | -49.28677 | 39982 ft | 436 kts | 237° |
| 2026-05-04 21:19 | 9.09710 | -49.33756 | 39984 ft | 437 kts | 237° |
| 2026-05-04 21:20 | 9.06283 | -49.38804 | 39980 ft | 438 kts | 237° |
| 2026-05-04 21:20 | 9.02827 | -49.43894 | 39984 ft | 438 kts | 237° |
| 2026-05-04 21:21 | 8.99389 | -49.48954 | 39981 ft | 438 kts | 237° |
| 2026-05-04 21:21 | 8.95918 | -49.54062 | 39971 ft | 439 kts | 237° |
| 2026-05-04 21:22 | 8.92476 | -49.59126 | 39958 ft | 439 kts | 237° |
| 2026-05-04 21:22 | 8.89000 | -49.64237 | 39979 ft | 441 kts | 237° |
| 2026-05-04 21:23 | 8.85531 | -49.69336 | 39984 ft | 442 kts | 237° |
| 2026-05-04 21:23 | 8.82044 | -49.74460 | 39981 ft | 444 kts | 237° |
| 2026-05-04 21:24 | 8.78536 | -49.79612 | 39976 ft | 445 kts | 237° |
| 2026-05-04 21:24 | 8.75014 | -49.84781 | 39976 ft | 445 kts | 237° |
| 2026-05-04 21:25 | 8.71519 | -49.89911 | 39977 ft | 445 kts | 237° |
| 2026-05-04 21:25 | 8.68003 | -49.95069 | 39958 ft | 444 kts | 237° |
| 2026-05-04 21:26 | 8.64508 | -50.00194 | 39973 ft | 444 kts | 237° |
| 2026-05-04 21:26 | 8.61000 | -50.05338 | 39975 ft | 443 kts | 237° |
| 2026-05-04 21:27 | 8.57520 | -50.10437 | 39978 ft | 443 kts | 237° |
| 2026-05-04 21:27 | 8.54018 | -50.15569 | 39973 ft | 443 kts | 237° |
| 2026-05-04 21:28 | 8.50516 | -50.20697 | 39973 ft | 443 kts | 237° |
| 2026-05-04 21:28 | 8.46518 | -50.25452 | 39973 ft | 446 kts | 226° |
| 2026-05-04 21:29 | 8.41699 | -50.29380 | 39975 ft | 450 kts | 217° |
| 2026-05-04 21:29 | 8.36435 | -50.32848 | 39977 ft | 451 kts | 216° |
| 2026-05-04 21:30 | 8.31143 | -50.36289 | 39970 ft | 451 kts | 216° |
| 2026-05-04 21:30 | 8.25888 | -50.39736 | 39969 ft | 451 kts | 216° |
| 2026-05-04 21:31 | 8.18018 | -50.44935 | 39964 ft | 452 kts | 216° |
| 2026-05-04 21:32 | 8.12752 | -50.48418 | 39966 ft | 453 kts | 216° |
| 2026-05-04 21:32 | 8.07491 | -50.51896 | 39974 ft | 453 kts | 216° |
| 2026-05-04 21:33 | 8.02196 | -50.55395 | 39970 ft | 454 kts | 216° |
| 2026-05-04 21:33 | 7.96893 | -50.58897 | 39967 ft | 455 kts | 216° |
| 2026-05-04 21:34 | 7.91624 | -50.62376 | 39961 ft | 455 kts | 216° |
| 2026-05-04 21:34 | 7.86300 | -50.65890 | 39967 ft | 455 kts | 216° |
| 2026-05-04 21:35 | 7.81008 | -50.69382 | 39965 ft | 456 kts | 216° |
| 2026-05-04 21:35 | 7.75725 | -50.72867 | 39964 ft | 456 kts | 216° |
| 2026-05-04 21:36 | 7.70404 | -50.76376 | 39964 ft | 456 kts | 216° |
| 2026-05-04 21:36 | 7.65106 | -50.79868 | 39964 ft | 456 kts | 216° |
| 2026-05-04 21:37 | 7.59788 | -50.83373 | 39964 ft | 455 kts | 216° |
| 2026-05-04 21:37 | 7.54513 | -50.86848 | 39964 ft | 455 kts | 216° |
| 2026-05-04 21:38 | 7.49207 | -50.90343 | 39956 ft | 454 kts | 216° |
| 2026-05-04 21:38 | 7.43902 | -50.93836 | 39963 ft | 454 kts | 216° |
| 2026-05-04 21:39 | 7.38630 | -50.97306 | 39962 ft | 455 kts | 216° |
| 2026-05-04 21:39 | 7.33335 | -51.00814 | 39962 ft | 454 kts | 216° |
| 2026-05-04 21:40 | 7.28058 | -51.04291 | 39960 ft | 454 kts | 215° |
| 2026-05-04 21:40 | 7.22783 | -51.07741 | 39958 ft | 454 kts | 216° |
| 2026-05-04 21:41 | 7.17484 | -51.11217 | 39961 ft | 454 kts | 216° |
| 2026-05-04 21:41 | 7.13081 | -51.14109 | 39962 ft | 454 kts | 216° |
| 2026-05-04 21:42 | 7.07790 | -51.17599 | 39967 ft | 454 kts | 215° |
| 2026-05-04 21:42 | 7.02519 | -51.21051 | 39964 ft | 454 kts | 214° |
| 2026-05-04 21:43 | 6.97211 | -51.24535 | 39957 ft | 455 kts | 214° |
| 2026-05-04 21:43 | 6.91906 | -51.28019 | 39957 ft | 456 kts | 214° |
| 2026-05-04 21:44 | 6.86606 | -51.31500 | 39960 ft | 456 kts | 214° |
| 2026-05-04 21:44 | 6.81275 | -51.34999 | 39960 ft | 457 kts | 214° |
| 2026-05-04 21:45 | 6.75973 | -51.38478 | 39958 ft | 457 kts | 214° |
| 2026-05-04 21:45 | 6.70622 | -51.41987 | 39960 ft | 458 kts | 214° |
| 2026-05-04 21:46 | 6.65304 | -51.45475 | 39955 ft | 458 kts | 214° |
| 2026-05-04 21:46 | 6.62627 | -51.47230 | 39837 ft | 460 kts | 214° |
| 2026-05-04 21:46 | 6.59916 | -51.49014 | 39126 ft | 466 kts | 214° |
| 2026-05-04 21:46 | 6.57251 | -51.50774 | 38552 ft | 461 kts | 213° |
| 2026-05-04 21:47 | 6.54576 | -51.52528 | 38011 ft | 455 kts | 213° |
| 2026-05-04 21:47 | 6.51923 | -51.54259 | 37502 ft | 449 kts | 213° |
| 2026-05-04 21:47 | 6.49340 | -51.55945 | 37036 ft | 444 kts | 213° |
| 2026-05-04 21:47 | 6.46764 | -51.57628 | 36539 ft | 440 kts | 213° |
| 2026-05-04 21:48 | 6.44198 | -51.59307 | 35972 ft | 437 kts | 213° |
| 2026-05-04 21:48 | 6.41650 | -51.60974 | 35442 ft | 435 kts | 213° |
| 2026-05-04 21:48 | 6.39117 | -51.62632 | 34923 ft | 432 kts | 213° |
| 2026-05-04 21:48 | 6.36602 | -51.64280 | 34441 ft | 429 kts | 213° |
| 2026-05-04 21:49 | 6.34144 | -51.65889 | 33984 ft | 426 kts | 213° |
| 2026-05-04 21:49 | 6.31666 | -51.67511 | 33458 ft | 422 kts | 213° |
| 2026-05-04 21:49 | 6.29213 | -51.69119 | 32921 ft | 420 kts | 214° |
| 2026-05-04 21:49 | 6.26765 | -51.70712 | 32370 ft | 417 kts | 213° |
| 2026-05-04 21:50 | 6.24325 | -51.72231 | 31786 ft | 416 kts | 214° |
| 2026-05-04 21:50 | 6.21895 | -51.73813 | 31223 ft | 415 kts | 215° |
| 2026-05-04 21:50 | 6.19509 | -51.75424 | 30678 ft | 413 kts | 216° |
| 2026-05-04 21:50 | 6.17122 | -51.77024 | 30149 ft | 411 kts | 216° |
| 2026-05-04 21:51 | 6.14732 | -51.78595 | 29542 ft | 410 kts | 216° |
| 2026-05-04 21:51 | 6.12340 | -51.80157 | 29056 ft | 406 kts | 216° |
| 2026-05-04 21:51 | 6.10007 | -51.81680 | 28612 ft | 402 kts | 215° |
| 2026-05-04 21:51 | 6.07667 | -51.83209 | 28158 ft | 399 kts | 215° |
| 2026-05-04 21:52 | 6.05341 | -51.84729 | 27709 ft | 396 kts | 215° |
| 2026-05-04 21:52 | 6.03036 | -51.86237 | 27243 ft | 393 kts | 215° |
| 2026-05-04 21:52 | 6.00771 | -51.87719 | 26806 ft | 390 kts | 215° |
| 2026-05-04 21:52 | 5.98496 | -51.89206 | 26404 ft | 387 kts | 215° |
| 2026-05-04 21:53 | 5.96275 | -51.90664 | 25973 ft | 383 kts | 214° |
| 2026-05-04 21:53 | 5.94049 | -51.92131 | 25562 ft | 380 kts | 214° |
| 2026-05-04 21:53 | 5.91825 | -51.93579 | 25173 ft | 376 kts | 214° |
| 2026-05-04 21:53 | 5.89624 | -51.95011 | 24717 ft | 376 kts | 213° |
| 2026-05-04 21:54 | 5.87451 | -51.96419 | 24268 ft | 375 kts | 212° |
| 2026-05-04 21:54 | 5.85258 | -51.97816 | 23935 ft | 371 kts | 213° |
| 2026-05-04 21:54 | 5.83098 | -51.99229 | 23538 ft | 369 kts | 213° |
| 2026-05-04 21:54 | 5.80949 | -52.00643 | 22948 ft | 366 kts | 213° |
| 2026-05-04 21:55 | 5.78826 | -52.02033 | 22388 ft | 368 kts | 212° |
| 2026-05-04 21:55 | 5.76673 | -52.03447 | 21867 ft | 368 kts | 212° |
| 2026-05-04 21:55 | 5.74519 | -52.04858 | 21377 ft | 368 kts | 212° |
| 2026-05-04 21:55 | 5.72396 | -52.06254 | 20850 ft | 370 kts | 211° |
| 2026-05-04 21:56 | 5.70231 | -52.07669 | 20372 ft | 370 kts | 211° |
| 2026-05-04 21:56 | 5.68068 | -52.09077 | 19997 ft | 367 kts | 211° |
| 2026-05-04 21:56 | 5.65933 | -52.10470 | 19641 ft | 365 kts | 211° |
| 2026-05-04 21:56 | 5.63830 | -52.11845 | 19250 ft | 363 kts | 211° |
| 2026-05-04 21:57 | 5.61709 | -52.13231 | 18853 ft | 362 kts | 211° |
| 2026-05-04 21:57 | 5.59590 | -52.14616 | 18466 ft | 361 kts | 211° |
| 2026-05-04 21:57 | 5.57504 | -52.15980 | 18046 ft | 361 kts | 210° |
| 2026-05-04 21:57 | 5.55391 | -52.17359 | 17621 ft | 359 kts | 210° |
| 2026-05-04 21:58 | 5.53304 | -52.18721 | 17248 ft | 355 kts | 210° |
| 2026-05-04 21:58 | 5.51236 | -52.20071 | 16876 ft | 352 kts | 210° |
| 2026-05-04 21:58 | 5.49211 | -52.21392 | 16496 ft | 350 kts | 210° |
| 2026-05-04 21:58 | 5.47171 | -52.22720 | 16107 ft | 347 kts | 209° |
| 2026-05-04 21:59 | 5.45084 | -52.23944 | 15708 ft | 343 kts | 205° |
| 2026-05-04 21:59 | 5.43027 | -52.25042 | 15228 ft | 334 kts | 204° |
| 2026-05-04 21:59 | 5.40975 | -52.26110 | 14451 ft | 331 kts | 203° |
| 2026-05-04 21:59 | 5.38923 | -52.27174 | 13712 ft | 333 kts | 203° |
| 2026-05-04 22:00 | 5.36891 | -52.28232 | 13317 ft | 331 kts | 203° |
| 2026-05-04 22:00 | 5.34851 | -52.29300 | 12937 ft | 328 kts | 203° |
| 2026-05-04 22:00 | 5.32829 | -52.30364 | 12569 ft | 325 kts | 203° |
| 2026-05-04 22:00 | 5.30857 | -52.31404 | 12215 ft | 322 kts | 204° |
| 2026-05-04 22:01 | 5.28879 | -52.32450 | 11854 ft | 319 kts | 204° |
| 2026-05-04 22:01 | 5.26914 | -52.33490 | 11498 ft | 317 kts | 204° |
| 2026-05-04 22:01 | 5.24995 | -52.34506 | 11156 ft | 314 kts | 204° |
| 2026-05-04 22:01 | 5.23064 | -52.35528 | 10812 ft | 312 kts | 204° |
| 2026-05-04 22:02 | 5.21145 | -52.36544 | 10470 ft | 310 kts | 204° |
| 2026-05-04 22:02 | 5.19243 | -52.37551 | 10211 ft | 305 kts | 204° |
| 2026-05-04 22:02 | 5.17397 | -52.38530 | 10063 ft | 296 kts | 204° |
| 2026-05-04 22:02 | 5.15602 | -52.39482 | 9884 ft | 289 kts | 204° |
| 2026-05-04 22:03 | 5.13825 | -52.40423 | 9554 ft | 287 kts | 204° |
| 2026-05-04 22:03 | 5.12060 | -52.41356 | 9258 ft | 285 kts | 205° |
| 2026-05-04 22:03 | 5.10337 | -52.42268 | 8961 ft | 283 kts | 205° |
| 2026-05-04 22:03 | 5.08604 | -52.43185 | 8669 ft | 280 kts | 205° |
| 2026-05-04 22:04 | 5.06880 | -52.44098 | 8377 ft | 279 kts | 205° |
| 2026-05-04 22:04 | 5.05166 | -52.45005 | 8084 ft | 277 kts | 205° |
| 2026-05-04 22:04 | 5.03482 | -52.45897 | 7796 ft | 275 kts | 205° |
| 2026-05-04 22:04 | 5.01789 | -52.46793 | 7503 ft | 274 kts | 205° |
| 2026-05-04 22:05 | 5.00096 | -52.47689 | 7218 ft | 273 kts | 205° |
| 2026-05-04 22:05 | 4.98436 | -52.48567 | 6941 ft | 271 kts | 205° |
| 2026-05-04 22:05 | 4.96764 | -52.49457 | 6669 ft | 271 kts | 206° |
| 2026-05-04 22:05 | 4.95140 | -52.50376 | 6413 ft | 269 kts | 207° |
| 2026-05-04 22:06 | 4.93517 | -52.51314 | 6121 ft | 269 kts | 207° |
| 2026-05-04 22:06 | 4.91881 | -52.52247 | 5841 ft | 268 kts | 207° |
| 2026-05-04 22:06 | 4.90275 | -52.53154 | 5714 ft | 261 kts | 207° |
| 2026-05-04 22:06 | 4.88741 | -52.54040 | 5588 ft | 254 kts | 208° |
| 2026-05-04 22:07 | 4.87209 | -52.54931 | 5269 ft | 257 kts | 208° |
| 2026-05-04 22:07 | 4.85645 | -52.55830 | 4942 ft | 259 kts | 208° |
| 2026-05-04 22:07 | 4.84094 | -52.56722 | 4637 ft | 257 kts | 207° |
| 2026-05-04 22:07 | 4.82541 | -52.57588 | 4414 ft | 252 kts | 207° |
| 2026-05-04 22:08 | 4.81039 | -52.58384 | 4210 ft | 239 kts | 197° |
| 2026-05-04 22:08 | 4.79420 | -52.58467 | 3818 ft | 234 kts | 161° |
| 2026-05-04 22:08 | 4.78040 | -52.57709 | 3620 ft | 219 kts | 143° |
| 2026-05-04 22:08 | 4.76769 | -52.56940 | 3512 ft | 207 kts | 148° |
| 2026-05-04 22:09 | 4.75548 | -52.56305 | 3403 ft | 193 kts | 149° |
| 2026-05-04 22:09 | 4.74485 | -52.55593 | 3195 ft | 177 kts | 123° |
| 2026-05-04 22:09 | 4.74016 | -52.54493 | 2973 ft | 168 kts | 100° |
| 2026-05-04 22:09 | 4.74048 | -52.53370 | 2859 ft | 161 kts | 66° |
| 2026-05-04 22:10 | 4.74557 | -52.52381 | 2835 ft | 160 kts | 63° |
| 2026-05-04 22:10 | 4.75022 | -52.51387 | 2772 ft | 159 kts | 66° |
| 2026-05-04 22:10 | 4.75479 | -52.50369 | 2730 ft | 159 kts | 65° |
| 2026-05-04 22:10 | 4.75947 | -52.49379 | 2497 ft | 158 kts | 64° |
| 2026-05-04 22:11 | 4.76407 | -52.48373 | 2328 ft | 158 kts | 64° |
| 2026-05-04 22:11 | 4.76861 | -52.47381 | 2093 ft | 155 kts | 64° |
| 2026-05-04 22:11 | 4.77308 | -52.46405 | 1927 ft | 153 kts | 64° |
| 2026-05-04 22:11 | 4.77743 | -52.45453 | 1753 ft | 148 kts | 65° |
| 2026-05-04 22:12 | 4.78158 | -52.44535 | 1575 ft | 139 kts | 64° |
| 2026-05-04 22:12 | 4.78538 | -52.43691 | 1372 ft | 129 kts | 63° |
| 2026-05-04 22:12 | 4.78911 | -52.42868 | 1182 ft | 130 kts | 64° |
| 2026-05-04 22:12 | 4.79295 | -52.42042 | 1027 ft | 134 kts | 63° |
| 2026-05-04 22:13 | 4.79663 | -52.41180 | 912 ft | 132 kts | 64° |
| 2026-05-04 22:13 | 4.80067 | -52.40374 | 733 ft | 128 kts | 63° |
| 2026-05-04 22:13 | 4.80452 | -52.39560 | 652 ft | 127 kts | 66° |
| 2026-05-04 22:13 | 4.80814 | -52.38708 | 458 ft | 139 kts | 66° |
| 2026-05-04 22:14 | 4.81228 | -52.37829 | 409 ft | 150 kts | 65° |
| 2026-05-04 22:14 | 4.81672 | -52.36942 | 1250 ft | 135 kts | 59° |
| 2026-05-04 22:14 | 4.82112 | -52.36110 | 1824 ft | 136 kts | 62° |
| 2026-05-04 22:14 | 4.82529 | -52.35228 | 2002 ft | 148 kts | 61° |
| 2026-05-04 22:15 | 4.83053 | -52.34296 | 1973 ft | 158 kts | 60° |
| 2026-05-04 22:15 | 4.83638 | -52.33240 | 2006 ft | 185 kts | 61° |
| 2026-05-04 22:15 | 4.84259 | -52.32125 | 1994 ft | 181 kts | 60° |
| 2026-05-04 22:15 | 4.84883 | -52.30999 | 1990 ft | 190 kts | 61° |
| 2026-05-04 22:16 | 4.85540 | -52.29850 | 1976 ft | 187 kts | 60° |
| 2026-05-04 22:16 | 4.86185 | -52.28700 | 1998 ft | 192 kts | 60° |
| 2026-05-04 22:16 | 4.86846 | -52.27517 | 2027 ft | 201 kts | 60° |
| 2026-05-04 22:16 | 4.87545 | -52.26267 | 1995 ft | 205 kts | 59° |
| 2026-05-04 22:17 | 4.88257 | -52.25039 | 2005 ft | 203 kts | 60° |
| 2026-05-04 22:17 | 4.89075 | -52.23892 | 2000 ft | 205 kts | 41° |
| 2026-05-04 22:17 | 4.90396 | -52.23326 | 2009 ft | 214 kts | 7° |
| 2026-05-04 22:17 | 4.91872 | -52.23552 | 2010 ft | 215 kts | 346° |
| 2026-05-04 22:18 | 4.93287 | -52.24006 | 2016 ft | 216 kts | 347° |
| 2026-05-04 22:18 | 4.94728 | -52.24471 | 2020 ft | 218 kts | 346° |
| 2026-05-04 22:18 | 4.96181 | -52.24930 | 2022 ft | 219 kts | 346° |
| 2026-05-04 22:18 | 4.97650 | -52.25378 | 2016 ft | 220 kts | 346° |
| 2026-05-04 22:19 | 4.99057 | -52.25876 | 2000 ft | 216 kts | 335° |
| 2026-05-04 22:19 | 5.00137 | -52.26940 | 2012 ft | 226 kts | 300° |
| 2026-05-04 22:19 | 5.00492 | -52.28493 | 2006 ft | 235 kts | 268° |
| 2026-05-04 22:19 | 5.00169 | -52.30109 | 2006 ft | 236 kts | 250° |
| 2026-05-04 22:20 | 4.99284 | -52.31481 | 1997 ft | 233 kts | 226° |
| 2026-05-04 22:20 | 4.98183 | -52.32676 | 2008 ft | 233 kts | 226° |
| 2026-05-04 22:20 | 4.97087 | -52.33886 | 2019 ft | 235 kts | 226° |
| 2026-05-04 22:20 | 4.95989 | -52.35091 | 2019 ft | 237 kts | 227° |
| 2026-05-04 22:21 | 4.94869 | -52.36313 | 2012 ft | 238 kts | 226° |
| 2026-05-04 22:21 | 4.93900 | -52.37621 | 2005 ft | 233 kts | 244° |
| 2026-05-04 22:21 | 4.93265 | -52.39099 | 2000 ft | 230 kts | 249° |
| 2026-05-04 22:21 | 4.92633 | -52.40621 | 2032 ft | 240 kts | 246° |
| 2026-05-04 22:22 | 4.91939 | -52.42179 | 2002 ft | 247 kts | 246° |
| 2026-05-04 22:22 | 4.91253 | -52.43730 | 1999 ft | 242 kts | 247° |
| 2026-05-04 22:22 | 4.90587 | -52.45231 | 1956 ft | 229 kts | 246° |
| 2026-05-04 22:22 | 4.89936 | -52.46624 | 2002 ft | 212 kts | 245° |
| 2026-05-04 22:23 | 4.89314 | -52.47942 | 2005 ft | 204 kts | 246° |
| 2026-05-04 22:23 | 4.88715 | -52.49223 | 1982 ft | 203 kts | 245° |
| 2026-05-04 22:23 | 4.88112 | -52.50489 | 1989 ft | 201 kts | 245° |
| 2026-05-04 22:23 | 4.87520 | -52.51763 | 1974 ft | 200 kts | 246° |
| 2026-05-04 22:24 | 4.86893 | -52.53000 | 1974 ft | 198 kts | 239° |
| 2026-05-04 22:24 | 4.86172 | -52.54126 | 1991 ft | 193 kts | 236° |
| 2026-05-04 22:24 | 4.85397 | -52.55233 | 2000 ft | 192 kts | 233° |
| 2026-05-04 22:24 | 4.84587 | -52.56291 | 1936 ft | 189 kts | 232° |
| 2026-05-04 22:25 | 4.83788 | -52.57317 | 1793 ft | 190 kts | 231° |
| 2026-05-04 22:25 | 4.82914 | -52.58331 | 1864 ft | 195 kts | 225° |
| 2026-05-04 22:25 | 4.81849 | -52.59161 | 1926 ft | 192 kts | 203° |
| 2026-05-04 22:25 | 4.80610 | -52.59382 | 1945 ft | 177 kts | 168° |
| 2026-05-04 22:26 | 4.79508 | -52.58954 | 1920 ft | 172 kts | 142° |
| 2026-05-04 22:26 | 4.78597 | -52.58186 | 1887 ft | 169 kts | 134° |
| 2026-05-04 22:26 | 4.77656 | -52.57460 | 1838 ft | 172 kts | 143° |
| 2026-05-04 22:26 | 4.76615 | -52.56858 | 1836 ft | 173 kts | 147° |
| 2026-05-04 22:27 | 4.75555 | -52.56320 | 1878 ft | 172 kts | 149° |
| 2026-05-04 22:27 | 4.74602 | -52.55659 | 1934 ft | 163 kts | 126° |
| 2026-05-04 22:27 | 4.74189 | -52.54629 | 1987 ft | 159 kts | 94° |
| 2026-05-04 22:27 | 4.74206 | -52.53534 | 2018 ft | 157 kts | 73° |
| 2026-05-04 22:28 | 4.74593 | -52.52518 | 2053 ft | 157 kts | 65° |
| 2026-05-04 22:28 | 4.75023 | -52.51508 | 2089 ft | 159 kts | 66° |
| 2026-05-04 22:28 | 4.75464 | -52.50493 | 2087 ft | 156 kts | 65° |
| 2026-05-04 22:28 | 4.75898 | -52.49517 | 2048 ft | 153 kts | 65° |
| 2026-05-04 22:29 | 4.76320 | -52.48547 | 2040 ft | 151 kts | 65° |
| 2026-05-04 22:29 | 4.76755 | -52.47570 | 2044 ft | 156 kts | 64° |
| 2026-05-04 22:29 | 4.77211 | -52.46581 | 2031 ft | 156 kts | 64° |
| 2026-05-04 22:29 | 4.77661 | -52.45589 | 1795 ft | 155 kts | 65° |
| 2026-05-04 22:30 | 4.78109 | -52.44615 | 1614 ft | 152 kts | 63° |
| 2026-05-04 22:30 | 4.78543 | -52.43668 | 1401 ft | 150 kts | 63° |
| 2026-05-04 22:30 | 4.78995 | -52.42731 | 1211 ft | 144 kts | 63° |
| 2026-05-04 22:30 | 4.79380 | -52.41876 | 1015 ft | 130 kts | 65° |
| 2026-05-04 22:31 | 4.79760 | -52.41044 | 865 ft | 133 kts | 65° |
| 2026-05-04 22:31 | 4.80150 | -52.40199 | 681 ft | 134 kts | 64° |
| 2026-05-04 22:31 | 4.80536 | -52.39347 | 483 ft | 136 kts | 65° |
| 2026-05-04 22:31 | 4.80931 | -52.38481 | 364 ft | 136 kts | 65° |
| 2026-05-04 22:32 | 4.81315 | -52.37631 | 128 ft | 134 kts | 67° |
| 2026-05-04 22:32 | 4.81685 | -52.36807 | 33 ft | 118 kts | 65° |
| 2026-05-04 22:32 | 4.81935 | -52.36261 | 33 ft | 53 kts | 65° |
| 2026-05-04 22:32 | 4.82004 | -52.36111 | 33 ft | 29 kts | 65° |
| 2026-05-04 22:33 | 4.82068 | -52.35981 | 33 ft | 10 kts | 48° |
| 2026-05-04 22:33 | 4.82116 | -52.35971 | 33 ft | 5 kts | 340° |
| 2026-05-04 22:33 | 4.82137 | -52.35984 | 33 ft | 5 kts | 320° |
| 2026-05-04 22:33 | 4.82159 | -52.36016 | 33 ft | 6 kts | 300° |
| 2026-05-04 22:34 | 4.82179 | -52.36050 | 32 ft | 6 kts | 301° |
| 2026-05-04 22:34 | 4.82191 | -52.36087 | 33 ft | 6 kts | 273° |
| 2026-05-04 22:34 | 4.82177 | -52.36131 | 33 ft | 6 kts | 246° |
| 2026-05-04 22:34 | 4.82162 | -52.36162 | 32 ft | 5 kts | 245° |
| 2026-05-04 22:35 | 4.82146 | -52.36194 | 33 ft | 5 kts | 240° |
| 2026-05-04 22:35 | 4.82128 | -52.36226 | 33 ft | 5 kts | 239° |
| 2026-05-04 22:35 | 4.82112 | -52.36259 | 33 ft | 5 kts | 261° |
| 2026-05-04 22:35 | 4.82137 | -52.36285 | 33 ft | 6 kts | 330° |
| 2026-05-04 22:36 | 4.82166 | -52.36300 | 33 ft | 3 kts | 334° |
| 2026-05-04 22:36 | 4.82179 | -52.36306 | 33 ft | 1 kts | 334° |